<?xml version="1.0" encoding="UTF-8" standalone="no" ?>
<gpx xmlns="http://www.topografix.com/GPX/1/1" xmlns:xsi="http://www.w3.org/2001/XMLSchema-instance" xsi:schemaLocation="http://www.topografix.com/GPX/1/1 http://www.topografix.com/GPX/1/1/gpx.xsd" version="1.1" creator="VisuGPX - https://www.visugpx.com">
  <metadata>
    <name>Jour 5</name>
  </metadata>
  <trk>
    <name><![CDATA[J5]]></name>
    <extensions>
      <line xmlns="http://www.topografix.com/GPX/gpx_style/0/2">
        <color>0000FF</color>
        <width>4</width>
      </line>
    </extensions>
    <trkseg>
      <trkpt lat="42.32742" lon="-0.25969">
        <ele>976.21</ele>
        <time>2021-08-03T09:23:44Z</time>
      </trkpt>
      <trkpt lat="42.32742" lon="-0.25969">
        <ele>976.21</ele>
        <time>2021-08-03T09:23:44Z</time>
      </trkpt>
      <trkpt lat="42.32742" lon="-0.25969">
        <ele>976.12</ele>
        <time>2021-08-03T09:23:45Z</time>
      </trkpt>
      <trkpt lat="42.32743" lon="-0.25969">
        <ele>976.15</ele>
        <time>2021-08-03T09:23:48Z</time>
      </trkpt>
      <trkpt lat="42.32736" lon="-0.25999">
        <ele>976.48</ele>
        <time>2021-08-03T09:23:54Z</time>
      </trkpt>
      <trkpt lat="42.32728" lon="-0.26051">
        <ele>977.61</ele>
        <time>2021-08-03T09:23:59Z</time>
      </trkpt>
      <trkpt lat="42.32689" lon="-0.26104">
        <ele>981.06</ele>
        <time>2021-08-03T09:24:08Z</time>
      </trkpt>
      <trkpt lat="42.32683" lon="-0.26103">
        <ele>981.53</ele>
        <time>2021-08-03T09:24:09Z</time>
      </trkpt>
      <trkpt lat="42.32651" lon="-0.26115">
        <ele>985.06</ele>
        <time>2021-08-03T09:24:15Z</time>
      </trkpt>
      <trkpt lat="42.32627" lon="-0.26139">
        <ele>986.94</ele>
        <time>2021-08-03T09:24:19Z</time>
      </trkpt>
      <trkpt lat="42.32582" lon="-0.26189">
        <ele>990.72</ele>
        <time>2021-08-03T09:24:25Z</time>
      </trkpt>
      <trkpt lat="42.32566" lon="-0.26211">
        <ele>992.15</ele>
        <time>2021-08-03T09:24:27Z</time>
      </trkpt>
      <trkpt lat="42.32534" lon="-0.26292">
        <ele>995.94</ele>
        <time>2021-08-03T09:24:32Z</time>
      </trkpt>
      <trkpt lat="42.32522" lon="-0.2637">
        <ele>1000.02</ele>
        <time>2021-08-03T09:24:36Z</time>
      </trkpt>
      <trkpt lat="42.3252" lon="-0.26391">
        <ele>1001.18</ele>
        <time>2021-08-03T09:24:37Z</time>
      </trkpt>
      <trkpt lat="42.32518" lon="-0.26446">
        <ele>1004.57</ele>
        <time>2021-08-03T09:24:40Z</time>
      </trkpt>
      <trkpt lat="42.32481" lon="-0.26482">
        <ele>1009.35</ele>
        <time>2021-08-03T09:24:45Z</time>
      </trkpt>
      <trkpt lat="42.32469" lon="-0.26481">
        <ele>1010.18</ele>
        <time>2021-08-03T09:24:46Z</time>
      </trkpt>
      <trkpt lat="42.32447" lon="-0.2648">
        <ele>1011.96</ele>
        <time>2021-08-03T09:24:48Z</time>
      </trkpt>
      <trkpt lat="42.32416" lon="-0.26513">
        <ele>1015.26</ele>
        <time>2021-08-03T09:24:53Z</time>
      </trkpt>
      <trkpt lat="42.32396" lon="-0.26544">
        <ele>1017.39</ele>
        <time>2021-08-03T09:24:56Z</time>
      </trkpt>
      <trkpt lat="42.32404" lon="-0.26598">
        <ele>1021.17</ele>
        <time>2021-08-03T09:25:01Z</time>
      </trkpt>
      <trkpt lat="42.32412" lon="-0.26607">
        <ele>1021.82</ele>
        <time>2021-08-03T09:25:02Z</time>
      </trkpt>
      <trkpt lat="42.32433" lon="-0.26668">
        <ele>1025.59</ele>
        <time>2021-08-03T09:25:07Z</time>
      </trkpt>
      <trkpt lat="42.32428" lon="-0.26698">
        <ele>1027.15</ele>
        <time>2021-08-03T09:25:09Z</time>
      </trkpt>
      <trkpt lat="42.32397" lon="-0.26753">
        <ele>1031.18</ele>
        <time>2021-08-03T09:25:14Z</time>
      </trkpt>
      <trkpt lat="42.32395" lon="-0.26764">
        <ele>1031.86</ele>
        <time>2021-08-03T09:25:15Z</time>
      </trkpt>
      <trkpt lat="42.32367" lon="-0.26797">
        <ele>1035.33</ele>
        <time>2021-08-03T09:25:20Z</time>
      </trkpt>
      <trkpt lat="42.32327" lon="-0.26828">
        <ele>1038.76</ele>
        <time>2021-08-03T09:25:25Z</time>
      </trkpt>
      <trkpt lat="42.32265" lon="-0.26832">
        <ele>1041.91</ele>
        <time>2021-08-03T09:25:32Z</time>
      </trkpt>
      <trkpt lat="42.32224" lon="-0.26799">
        <ele>1042.97</ele>
        <time>2021-08-03T09:25:38Z</time>
      </trkpt>
      <trkpt lat="42.32193" lon="-0.26743">
        <ele>1044.34</ele>
        <time>2021-08-03T09:25:44Z</time>
      </trkpt>
      <trkpt lat="42.32155" lon="-0.26722">
        <ele>1045.77</ele>
        <time>2021-08-03T09:25:49Z</time>
      </trkpt>
      <trkpt lat="42.32141" lon="-0.26734">
        <ele>1046.36</ele>
        <time>2021-08-03T09:25:51Z</time>
      </trkpt>
      <trkpt lat="42.32101" lon="-0.26749">
        <ele>1049.23</ele>
        <time>2021-08-03T09:25:57Z</time>
      </trkpt>
      <trkpt lat="42.3202" lon="-0.26738">
        <ele>1053.09</ele>
        <time>2021-08-03T09:26:05Z</time>
      </trkpt>
      <trkpt lat="42.31985" lon="-0.26705">
        <ele>1055.36</ele>
        <time>2021-08-03T09:26:09Z</time>
      </trkpt>
      <trkpt lat="42.31938" lon="-0.2668">
        <ele>1059.09</ele>
        <time>2021-08-03T09:26:15Z</time>
      </trkpt>
      <trkpt lat="42.31882" lon="-0.26689">
        <ele>1062.91</ele>
        <time>2021-08-03T09:26:21Z</time>
      </trkpt>
      <trkpt lat="42.31856" lon="-0.26696">
        <ele>1065.2</ele>
        <time>2021-08-03T09:26:24Z</time>
      </trkpt>
      <trkpt lat="42.31827" lon="-0.26721">
        <ele>1068.4</ele>
        <time>2021-08-03T09:26:28Z</time>
      </trkpt>
      <trkpt lat="42.31784" lon="-0.26766">
        <ele>1072.15</ele>
        <time>2021-08-03T09:26:33Z</time>
      </trkpt>
      <trkpt lat="42.3173" lon="-0.26831">
        <ele>1075.79</ele>
        <time>2021-08-03T09:26:39Z</time>
      </trkpt>
      <trkpt lat="42.31708" lon="-0.26922">
        <ele>1079.5</ele>
        <time>2021-08-03T09:26:45Z</time>
      </trkpt>
      <trkpt lat="42.31708" lon="-0.26956">
        <ele>1080.78</ele>
        <time>2021-08-03T09:26:47Z</time>
      </trkpt>
      <trkpt lat="42.31724" lon="-0.27033">
        <ele>1083.74</ele>
        <time>2021-08-03T09:26:52Z</time>
      </trkpt>
      <trkpt lat="42.31759" lon="-0.27141">
        <ele>1086.69</ele>
        <time>2021-08-03T09:26:59Z</time>
      </trkpt>
      <trkpt lat="42.3181" lon="-0.27205">
        <ele>1088.9</ele>
        <time>2021-08-03T09:27:05Z</time>
      </trkpt>
      <trkpt lat="42.31855" lon="-0.27253">
        <ele>1090.98</ele>
        <time>2021-08-03T09:27:11Z</time>
      </trkpt>
      <trkpt lat="42.31829" lon="-0.27292">
        <ele>1092.32</ele>
        <time>2021-08-03T09:27:15Z</time>
      </trkpt>
      <trkpt lat="42.31786" lon="-0.27326">
        <ele>1093.84</ele>
        <time>2021-08-03T09:27:19Z</time>
      </trkpt>
      <trkpt lat="42.31768" lon="-0.2735">
        <ele>1094.85</ele>
        <time>2021-08-03T09:27:21Z</time>
      </trkpt>
      <trkpt lat="42.31727" lon="-0.27383">
        <ele>1097.24</ele>
        <time>2021-08-03T09:27:25Z</time>
      </trkpt>
      <trkpt lat="42.31689" lon="-0.27459">
        <ele>1101.21</ele>
        <time>2021-08-03T09:27:31Z</time>
      </trkpt>
      <trkpt lat="42.31687" lon="-0.27506">
        <ele>1103.81</ele>
        <time>2021-08-03T09:27:34Z</time>
      </trkpt>
      <trkpt lat="42.31688" lon="-0.27592">
        <ele>1107.93</ele>
        <time>2021-08-03T09:27:39Z</time>
      </trkpt>
      <trkpt lat="42.3169" lon="-0.27664">
        <ele>1111.73</ele>
        <time>2021-08-03T09:27:43Z</time>
      </trkpt>
      <trkpt lat="42.31689" lon="-0.27707">
        <ele>1113.87</ele>
        <time>2021-08-03T09:27:46Z</time>
      </trkpt>
      <trkpt lat="42.31695" lon="-0.27752">
        <ele>1116.33</ele>
        <time>2021-08-03T09:27:50Z</time>
      </trkpt>
      <trkpt lat="42.31671" lon="-0.27782">
        <ele>1119.74</ele>
        <time>2021-08-03T09:27:56Z</time>
      </trkpt>
      <trkpt lat="42.31644" lon="-0.2775">
        <ele>1121.91</ele>
        <time>2021-08-03T09:28:00Z</time>
      </trkpt>
      <trkpt lat="42.31623" lon="-0.27739">
        <ele>1124.6</ele>
        <time>2021-08-03T09:28:06Z</time>
      </trkpt>
      <trkpt lat="42.31642" lon="-0.27779">
        <ele>1126.57</ele>
        <time>2021-08-03T09:28:11Z</time>
      </trkpt>
      <trkpt lat="42.31663" lon="-0.27868">
        <ele>1129.37</ele>
        <time>2021-08-03T09:28:17Z</time>
      </trkpt>
      <trkpt lat="42.31693" lon="-0.27879">
        <ele>1132.99</ele>
        <time>2021-08-03T09:28:23Z</time>
      </trkpt>
      <trkpt lat="42.31731" lon="-0.27891">
        <ele>1136.51</ele>
        <time>2021-08-03T09:28:29Z</time>
      </trkpt>
      <trkpt lat="42.31732" lon="-0.279">
        <ele>1137.03</ele>
        <time>2021-08-03T09:28:30Z</time>
      </trkpt>
      <trkpt lat="42.31757" lon="-0.27915">
        <ele>1140.59</ele>
        <time>2021-08-03T09:28:37Z</time>
      </trkpt>
      <trkpt lat="42.31796" lon="-0.27923">
        <ele>1143.03</ele>
        <time>2021-08-03T09:28:42Z</time>
      </trkpt>
      <trkpt lat="42.31812" lon="-0.27991">
        <ele>1145.86</ele>
        <time>2021-08-03T09:28:47Z</time>
      </trkpt>
      <trkpt lat="42.31814" lon="-0.28098">
        <ele>1150.08</ele>
        <time>2021-08-03T09:28:53Z</time>
      </trkpt>
      <trkpt lat="42.31816" lon="-0.28113">
        <ele>1150.84</ele>
        <time>2021-08-03T09:28:54Z</time>
      </trkpt>
      <trkpt lat="42.31794" lon="-0.28168">
        <ele>1154.95</ele>
        <time>2021-08-03T09:28:59Z</time>
      </trkpt>
      <trkpt lat="42.31759" lon="-0.28201">
        <ele>1157.13</ele>
        <time>2021-08-03T09:29:03Z</time>
      </trkpt>
      <trkpt lat="42.31742" lon="-0.2823">
        <ele>1159.09</ele>
        <time>2021-08-03T09:29:06Z</time>
      </trkpt>
      <trkpt lat="42.317" lon="-0.28278">
        <ele>1163.21</ele>
        <time>2021-08-03T09:29:11Z</time>
      </trkpt>
      <trkpt lat="42.31689" lon="-0.28305">
        <ele>1164.06</ele>
        <time>2021-08-03T09:29:13Z</time>
      </trkpt>
      <trkpt lat="42.31659" lon="-0.28438">
        <ele>1166.32</ele>
        <time>2021-08-03T09:29:22Z</time>
      </trkpt>
      <trkpt lat="42.31631" lon="-0.28614">
        <ele>1164.9</ele>
        <time>2021-08-03T09:29:32Z</time>
      </trkpt>
      <trkpt lat="42.31641" lon="-0.28723">
        <ele>1160.99</ele>
        <time>2021-08-03T09:29:38Z</time>
      </trkpt>
      <trkpt lat="42.31656" lon="-0.2879">
        <ele>1157.17</ele>
        <time>2021-08-03T09:29:42Z</time>
      </trkpt>
      <trkpt lat="42.31665" lon="-0.28822">
        <ele>1155.15</ele>
        <time>2021-08-03T09:29:44Z</time>
      </trkpt>
      <trkpt lat="42.31662" lon="-0.28904">
        <ele>1150.57</ele>
        <time>2021-08-03T09:29:49Z</time>
      </trkpt>
      <trkpt lat="42.31639" lon="-0.28984">
        <ele>1145.84</ele>
        <time>2021-08-03T09:29:54Z</time>
      </trkpt>
      <trkpt lat="42.31626" lon="-0.29013">
        <ele>1143.89</ele>
        <time>2021-08-03T09:29:56Z</time>
      </trkpt>
      <trkpt lat="42.31597" lon="-0.29047">
        <ele>1139.69</ele>
        <time>2021-08-03T09:30:00Z</time>
      </trkpt>
      <trkpt lat="42.31576" lon="-0.29052">
        <ele>1137.54</ele>
        <time>2021-08-03T09:30:02Z</time>
      </trkpt>
      <trkpt lat="42.31533" lon="-0.2907">
        <ele>1133.95</ele>
        <time>2021-08-03T09:30:06Z</time>
      </trkpt>
      <trkpt lat="42.31492" lon="-0.29077">
        <ele>1130.55</ele>
        <time>2021-08-03T09:30:10Z</time>
      </trkpt>
      <trkpt lat="42.31476" lon="-0.29135">
        <ele>1126.98</ele>
        <time>2021-08-03T09:30:16Z</time>
      </trkpt>
      <trkpt lat="42.31458" lon="-0.29174">
        <ele>1124.37</ele>
        <time>2021-08-03T09:30:21Z</time>
      </trkpt>
      <trkpt lat="42.31402" lon="-0.29192">
        <ele>1121.1</ele>
        <time>2021-08-03T09:30:26Z</time>
      </trkpt>
      <trkpt lat="42.31375" lon="-0.29209">
        <ele>1119.16</ele>
        <time>2021-08-03T09:30:29Z</time>
      </trkpt>
      <trkpt lat="42.31354" lon="-0.29232">
        <ele>1114.85</ele>
        <time>2021-08-03T09:30:35Z</time>
      </trkpt>
      <trkpt lat="42.31373" lon="-0.29229">
        <ele>1113.23</ele>
        <time>2021-08-03T09:30:38Z</time>
      </trkpt>
      <trkpt lat="42.31419" lon="-0.29203">
        <ele>1110.9</ele>
        <time>2021-08-03T09:30:43Z</time>
      </trkpt>
      <trkpt lat="42.3143" lon="-0.29217">
        <ele>1107.88</ele>
        <time>2021-08-03T09:30:48Z</time>
      </trkpt>
      <trkpt lat="42.31415" lon="-0.29227">
        <ele>1106.2</ele>
        <time>2021-08-03T09:30:50Z</time>
      </trkpt>
      <trkpt lat="42.31397" lon="-0.29236">
        <ele>1105.18</ele>
        <time>2021-08-03T09:30:52Z</time>
      </trkpt>
      <trkpt lat="42.31391" lon="-0.29277">
        <ele>1101.78</ele>
        <time>2021-08-03T09:30:58Z</time>
      </trkpt>
      <trkpt lat="42.31427" lon="-0.29288">
        <ele>1099.96</ele>
        <time>2021-08-03T09:31:02Z</time>
      </trkpt>
      <trkpt lat="42.31445" lon="-0.29292">
        <ele>1099.03</ele>
        <time>2021-08-03T09:31:04Z</time>
      </trkpt>
      <trkpt lat="42.31475" lon="-0.29339">
        <ele>1095.14</ele>
        <time>2021-08-03T09:31:11Z</time>
      </trkpt>
      <trkpt lat="42.31473" lon="-0.29407">
        <ele>1092.19</ele>
        <time>2021-08-03T09:31:17Z</time>
      </trkpt>
      <trkpt lat="42.31468" lon="-0.29419">
        <ele>1091.75</ele>
        <time>2021-08-03T09:31:18Z</time>
      </trkpt>
      <trkpt lat="42.31455" lon="-0.29459">
        <ele>1090.59</ele>
        <time>2021-08-03T09:31:21Z</time>
      </trkpt>
      <trkpt lat="42.31464" lon="-0.29525">
        <ele>1087.88</ele>
        <time>2021-08-03T09:31:26Z</time>
      </trkpt>
      <trkpt lat="42.31463" lon="-0.29572">
        <ele>1085.73</ele>
        <time>2021-08-03T09:31:30Z</time>
      </trkpt>
      <trkpt lat="42.31454" lon="-0.29659">
        <ele>1081.75</ele>
        <time>2021-08-03T09:31:36Z</time>
      </trkpt>
      <trkpt lat="42.31454" lon="-0.29693">
        <ele>1079.31</ele>
        <time>2021-08-03T09:31:39Z</time>
      </trkpt>
      <trkpt lat="42.31481" lon="-0.29734">
        <ele>1075.12</ele>
        <time>2021-08-03T09:31:44Z</time>
      </trkpt>
      <trkpt lat="42.315" lon="-0.29741">
        <ele>1073.63</ele>
        <time>2021-08-03T09:31:46Z</time>
      </trkpt>
      <trkpt lat="42.31569" lon="-0.2976">
        <ele>1069.56</ele>
        <time>2021-08-03T09:31:52Z</time>
      </trkpt>
      <trkpt lat="42.31625" lon="-0.29784">
        <ele>1066.01</ele>
        <time>2021-08-03T09:31:57Z</time>
      </trkpt>
      <trkpt lat="42.31645" lon="-0.29795">
        <ele>1064.38</ele>
        <time>2021-08-03T09:31:59Z</time>
      </trkpt>
      <trkpt lat="42.3168" lon="-0.29845">
        <ele>1060.22</ele>
        <time>2021-08-03T09:32:04Z</time>
      </trkpt>
      <trkpt lat="42.31729" lon="-0.29936">
        <ele>1054.9</ele>
        <time>2021-08-03T09:32:11Z</time>
      </trkpt>
      <trkpt lat="42.31738" lon="-0.29948">
        <ele>1054.23</ele>
        <time>2021-08-03T09:32:12Z</time>
      </trkpt>
      <trkpt lat="42.31786" lon="-0.29997">
        <ele>1049.92</ele>
        <time>2021-08-03T09:32:18Z</time>
      </trkpt>
      <trkpt lat="42.31824" lon="-0.30034">
        <ele>1046.41</ele>
        <time>2021-08-03T09:32:23Z</time>
      </trkpt>
      <trkpt lat="42.31829" lon="-0.30041">
        <ele>1045.74</ele>
        <time>2021-08-03T09:32:24Z</time>
      </trkpt>
      <trkpt lat="42.31874" lon="-0.3006">
        <ele>1041.69</ele>
        <time>2021-08-03T09:32:29Z</time>
      </trkpt>
      <trkpt lat="42.31902" lon="-0.30062">
        <ele>1041.07</ele>
        <time>2021-08-03T09:32:33Z</time>
      </trkpt>
      <trkpt lat="42.31892" lon="-0.30099">
        <ele>1042.59</ele>
        <time>2021-08-03T09:32:40Z</time>
      </trkpt>
      <trkpt lat="42.31883" lon="-0.30105">
        <ele>1043.02</ele>
        <time>2021-08-03T09:32:41Z</time>
      </trkpt>
      <trkpt lat="42.31824" lon="-0.30159">
        <ele>1046.37</ele>
        <time>2021-08-03T09:32:47Z</time>
      </trkpt>
      <trkpt lat="42.31813" lon="-0.30217">
        <ele>1049.86</ele>
        <time>2021-08-03T09:32:53Z</time>
      </trkpt>
      <trkpt lat="42.31811" lon="-0.30305">
        <ele>1053.99</ele>
        <time>2021-08-03T09:33:01Z</time>
      </trkpt>
      <trkpt lat="42.31816" lon="-0.30315">
        <ele>1054.44</ele>
        <time>2021-08-03T09:33:02Z</time>
      </trkpt>
      <trkpt lat="42.31832" lon="-0.30344">
        <ele>1055.88</ele>
        <time>2021-08-03T09:33:05Z</time>
      </trkpt>
      <trkpt lat="42.31822" lon="-0.30406">
        <ele>1058.26</ele>
        <time>2021-08-03T09:33:11Z</time>
      </trkpt>
      <trkpt lat="42.318" lon="-0.30428">
        <ele>1059.6</ele>
        <time>2021-08-03T09:33:14Z</time>
      </trkpt>
      <trkpt lat="42.31806" lon="-0.30492">
        <ele>1061.99</ele>
        <time>2021-08-03T09:33:20Z</time>
      </trkpt>
      <trkpt lat="42.31804" lon="-0.30579">
        <ele>1063.06</ele>
        <time>2021-08-03T09:33:27Z</time>
      </trkpt>
      <trkpt lat="42.31791" lon="-0.30598">
        <ele>1062.82</ele>
        <time>2021-08-03T09:33:29Z</time>
      </trkpt>
      <trkpt lat="42.31778" lon="-0.30615">
        <ele>1062.19</ele>
        <time>2021-08-03T09:33:31Z</time>
      </trkpt>
      <trkpt lat="42.31723" lon="-0.30648">
        <ele>1059.12</ele>
        <time>2021-08-03T09:33:38Z</time>
      </trkpt>
      <trkpt lat="42.3172" lon="-0.30695">
        <ele>1055.16</ele>
        <time>2021-08-03T09:33:45Z</time>
      </trkpt>
      <trkpt lat="42.3173" lon="-0.30733">
        <ele>1052.04</ele>
        <time>2021-08-03T09:33:54Z</time>
      </trkpt>
      <trkpt lat="42.31733" lon="-0.30765">
        <ele>1050.03</ele>
        <time>2021-08-03T09:34:18Z</time>
      </trkpt>
      <trkpt lat="42.31726" lon="-0.30807">
        <ele>1049.74</ele>
        <time>2021-08-03T09:34:22Z</time>
      </trkpt>
      <trkpt lat="42.31715" lon="-0.30849">
        <ele>1048.74</ele>
        <time>2021-08-03T09:34:27Z</time>
      </trkpt>
      <trkpt lat="42.31697" lon="-0.30876">
        <ele>1047.92</ele>
        <time>2021-08-03T09:34:31Z</time>
      </trkpt>
      <trkpt lat="42.31665" lon="-0.30894">
        <ele>1047.6</ele>
        <time>2021-08-03T09:34:35Z</time>
      </trkpt>
      <trkpt lat="42.31628" lon="-0.30926">
        <ele>1047.01</ele>
        <time>2021-08-03T09:34:40Z</time>
      </trkpt>
      <trkpt lat="42.31612" lon="-0.3096">
        <ele>1046.54</ele>
        <time>2021-08-03T09:34:43Z</time>
      </trkpt>
      <trkpt lat="42.31606" lon="-0.31054">
        <ele>1045.4</ele>
        <time>2021-08-03T09:34:50Z</time>
      </trkpt>
      <trkpt lat="42.31611" lon="-0.31066">
        <ele>1045.2</ele>
        <time>2021-08-03T09:34:51Z</time>
      </trkpt>
      <trkpt lat="42.31633" lon="-0.31119">
        <ele>1044.69</ele>
        <time>2021-08-03T09:34:55Z</time>
      </trkpt>
      <trkpt lat="42.31632" lon="-0.31193">
        <ele>1042.8</ele>
        <time>2021-08-03T09:35:00Z</time>
      </trkpt>
      <trkpt lat="42.31626" lon="-0.31219">
        <ele>1041.9</ele>
        <time>2021-08-03T09:35:02Z</time>
      </trkpt>
      <trkpt lat="42.31593" lon="-0.31257">
        <ele>1040.25</ele>
        <time>2021-08-03T09:35:07Z</time>
      </trkpt>
      <trkpt lat="42.3158" lon="-0.31268">
        <ele>1039.61</ele>
        <time>2021-08-03T09:35:09Z</time>
      </trkpt>
      <trkpt lat="42.31538" lon="-0.31336">
        <ele>1037.19</ele>
        <time>2021-08-03T09:35:16Z</time>
      </trkpt>
      <trkpt lat="42.31532" lon="-0.31388">
        <ele>1035.8</ele>
        <time>2021-08-03T09:35:20Z</time>
      </trkpt>
      <trkpt lat="42.31522" lon="-0.31442">
        <ele>1033.71</ele>
        <time>2021-08-03T09:35:24Z</time>
      </trkpt>
      <trkpt lat="42.3151" lon="-0.31472">
        <ele>1032.33</ele>
        <time>2021-08-03T09:35:27Z</time>
      </trkpt>
      <trkpt lat="42.3153" lon="-0.31547">
        <ele>1030.23</ele>
        <time>2021-08-03T09:35:33Z</time>
      </trkpt>
      <trkpt lat="42.3157" lon="-0.31579">
        <ele>1027.55</ele>
        <time>2021-08-03T09:35:38Z</time>
      </trkpt>
      <trkpt lat="42.31636" lon="-0.31601">
        <ele>1023.09</ele>
        <time>2021-08-03T09:35:44Z</time>
      </trkpt>
      <trkpt lat="42.31672" lon="-0.31613">
        <ele>1020.18</ele>
        <time>2021-08-03T09:35:47Z</time>
      </trkpt>
      <trkpt lat="42.31728" lon="-0.31652">
        <ele>1016.37</ele>
        <time>2021-08-03T09:35:52Z</time>
      </trkpt>
      <trkpt lat="42.31739" lon="-0.3166">
        <ele>1015.56</ele>
        <time>2021-08-03T09:35:53Z</time>
      </trkpt>
      <trkpt lat="42.31797" lon="-0.31674">
        <ele>1011.66</ele>
        <time>2021-08-03T09:35:58Z</time>
      </trkpt>
      <trkpt lat="42.31834" lon="-0.31653">
        <ele>1008.24</ele>
        <time>2021-08-03T09:36:02Z</time>
      </trkpt>
      <trkpt lat="42.31842" lon="-0.31664">
        <ele>1004.98</ele>
        <time>2021-08-03T09:36:06Z</time>
      </trkpt>
      <trkpt lat="42.31826" lon="-0.31677">
        <ele>1003.64</ele>
        <time>2021-08-03T09:36:08Z</time>
      </trkpt>
      <trkpt lat="42.31781" lon="-0.31716">
        <ele>1000.2</ele>
        <time>2021-08-03T09:36:13Z</time>
      </trkpt>
      <trkpt lat="42.31731" lon="-0.31708">
        <ele>996.12</ele>
        <time>2021-08-03T09:36:19Z</time>
      </trkpt>
      <trkpt lat="42.3171" lon="-0.31701">
        <ele>994.86</ele>
        <time>2021-08-03T09:36:21Z</time>
      </trkpt>
      <trkpt lat="42.31656" lon="-0.31693">
        <ele>990.44</ele>
        <time>2021-08-03T09:36:27Z</time>
      </trkpt>
      <trkpt lat="42.31613" lon="-0.31697">
        <ele>987.24</ele>
        <time>2021-08-03T09:36:32Z</time>
      </trkpt>
      <trkpt lat="42.31591" lon="-0.31695">
        <ele>985.73</ele>
        <time>2021-08-03T09:36:35Z</time>
      </trkpt>
      <trkpt lat="42.31585" lon="-0.31716">
        <ele>982.82</ele>
        <time>2021-08-03T09:36:41Z</time>
      </trkpt>
      <trkpt lat="42.316" lon="-0.31719">
        <ele>981.99</ele>
        <time>2021-08-03T09:36:43Z</time>
      </trkpt>
      <trkpt lat="42.31621" lon="-0.31721">
        <ele>981.51</ele>
        <time>2021-08-03T09:36:45Z</time>
      </trkpt>
      <trkpt lat="42.31665" lon="-0.31736">
        <ele>980.15</ele>
        <time>2021-08-03T09:36:49Z</time>
      </trkpt>
      <trkpt lat="42.31664" lon="-0.31769">
        <ele>976.81</ele>
        <time>2021-08-03T09:36:55Z</time>
      </trkpt>
      <trkpt lat="42.31653" lon="-0.3177">
        <ele>976.23</ele>
        <time>2021-08-03T09:36:56Z</time>
      </trkpt>
      <trkpt lat="42.31597" lon="-0.31777">
        <ele>973.32</ele>
        <time>2021-08-03T09:37:01Z</time>
      </trkpt>
      <trkpt lat="42.31588" lon="-0.31808">
        <ele>970.17</ele>
        <time>2021-08-03T09:37:06Z</time>
      </trkpt>
      <trkpt lat="42.31597" lon="-0.31811">
        <ele>969.51</ele>
        <time>2021-08-03T09:37:07Z</time>
      </trkpt>
      <trkpt lat="42.31652" lon="-0.31831">
        <ele>967.14</ele>
        <time>2021-08-03T09:37:12Z</time>
      </trkpt>
      <trkpt lat="42.31681" lon="-0.31834">
        <ele>965.77</ele>
        <time>2021-08-03T09:37:15Z</time>
      </trkpt>
      <trkpt lat="42.31693" lon="-0.31866">
        <ele>962.44</ele>
        <time>2021-08-03T09:37:21Z</time>
      </trkpt>
      <trkpt lat="42.31686" lon="-0.31873">
        <ele>961.84</ele>
        <time>2021-08-03T09:37:22Z</time>
      </trkpt>
      <trkpt lat="42.31604" lon="-0.31971">
        <ele>958.28</ele>
        <time>2021-08-03T09:37:32Z</time>
      </trkpt>
      <trkpt lat="42.31557" lon="-0.32082">
        <ele>955.07</ele>
        <time>2021-08-03T09:37:40Z</time>
      </trkpt>
      <trkpt lat="42.3153" lon="-0.32171">
        <ele>951.85</ele>
        <time>2021-08-03T09:37:46Z</time>
      </trkpt>
      <trkpt lat="42.31509" lon="-0.32217">
        <ele>950.2</ele>
        <time>2021-08-03T09:37:50Z</time>
      </trkpt>
      <trkpt lat="42.31504" lon="-0.3227">
        <ele>948.34</ele>
        <time>2021-08-03T09:37:54Z</time>
      </trkpt>
      <trkpt lat="42.31504" lon="-0.32312">
        <ele>947.01</ele>
        <time>2021-08-03T09:37:57Z</time>
      </trkpt>
      <trkpt lat="42.3152" lon="-0.32388">
        <ele>945.18</ele>
        <time>2021-08-03T09:38:02Z</time>
      </trkpt>
      <trkpt lat="42.31535" lon="-0.32478">
        <ele>942.35</ele>
        <time>2021-08-03T09:38:08Z</time>
      </trkpt>
      <trkpt lat="42.31571" lon="-0.32489">
        <ele>938.94</ele>
        <time>2021-08-03T09:38:14Z</time>
      </trkpt>
      <trkpt lat="42.31616" lon="-0.3246">
        <ele>936.42</ele>
        <time>2021-08-03T09:38:19Z</time>
      </trkpt>
      <trkpt lat="42.31644" lon="-0.32436">
        <ele>933.91</ele>
        <time>2021-08-03T09:38:23Z</time>
      </trkpt>
      <trkpt lat="42.3168" lon="-0.32477">
        <ele>930.8</ele>
        <time>2021-08-03T09:38:29Z</time>
      </trkpt>
      <trkpt lat="42.31682" lon="-0.32492">
        <ele>930.56</ele>
        <time>2021-08-03T09:38:30Z</time>
      </trkpt>
      <trkpt lat="42.31706" lon="-0.32663">
        <ele>930.1</ele>
        <time>2021-08-03T09:38:40Z</time>
      </trkpt>
      <trkpt lat="42.31721" lon="-0.3285">
        <ele>928.98</ele>
        <time>2021-08-03T09:38:50Z</time>
      </trkpt>
      <trkpt lat="42.3171" lon="-0.33002">
        <ele>927.51</ele>
        <time>2021-08-03T09:38:58Z</time>
      </trkpt>
      <trkpt lat="42.31706" lon="-0.33174">
        <ele>924.72</ele>
        <time>2021-08-03T09:39:07Z</time>
      </trkpt>
      <trkpt lat="42.31705" lon="-0.33261">
        <ele>923</ele>
        <time>2021-08-03T09:39:12Z</time>
      </trkpt>
      <trkpt lat="42.31672" lon="-0.3337">
        <ele>921.54</ele>
        <time>2021-08-03T09:39:19Z</time>
      </trkpt>
      <trkpt lat="42.3165" lon="-0.33382">
        <ele>920.99</ele>
        <time>2021-08-03T09:39:21Z</time>
      </trkpt>
      <trkpt lat="42.31632" lon="-0.3339">
        <ele>920.75</ele>
        <time>2021-08-03T09:39:23Z</time>
      </trkpt>
      <trkpt lat="42.31623" lon="-0.33398">
        <ele>920.68</ele>
        <time>2021-08-03T09:39:24Z</time>
      </trkpt>
      <trkpt lat="42.31617" lon="-0.33409">
        <ele>920.63</ele>
        <time>2021-08-03T09:39:25Z</time>
      </trkpt>
      <trkpt lat="42.31612" lon="-0.33421">
        <ele>920.58</ele>
        <time>2021-08-03T09:39:26Z</time>
      </trkpt>
      <trkpt lat="42.31621" lon="-0.33484">
        <ele>920.38</ele>
        <time>2021-08-03T09:39:32Z</time>
      </trkpt>
      <trkpt lat="42.31638" lon="-0.33492">
        <ele>920.54</ele>
        <time>2021-08-03T09:39:34Z</time>
      </trkpt>
      <trkpt lat="42.31661" lon="-0.33499">
        <ele>920.81</ele>
        <time>2021-08-03T09:39:37Z</time>
      </trkpt>
      <trkpt lat="42.31666" lon="-0.3353">
        <ele>920.52</ele>
        <time>2021-08-03T09:39:42Z</time>
      </trkpt>
      <trkpt lat="42.31644" lon="-0.3354">
        <ele>920.03</ele>
        <time>2021-08-03T09:39:46Z</time>
      </trkpt>
      <trkpt lat="42.31625" lon="-0.33559">
        <ele>919.51</ele>
        <time>2021-08-03T09:39:57Z</time>
      </trkpt>
      <trkpt lat="42.31593" lon="-0.33612">
        <ele>919.74</ele>
        <time>2021-08-03T09:40:06Z</time>
      </trkpt>
      <trkpt lat="42.31575" lon="-0.33671">
        <ele>920.02</ele>
        <time>2021-08-03T09:40:11Z</time>
      </trkpt>
      <trkpt lat="42.31547" lon="-0.33708">
        <ele>919.95</ele>
        <time>2021-08-03T09:40:15Z</time>
      </trkpt>
      <trkpt lat="42.31528" lon="-0.3372">
        <ele>919.86</ele>
        <time>2021-08-03T09:40:17Z</time>
      </trkpt>
      <trkpt lat="42.31488" lon="-0.33816">
        <ele>918.84</ele>
        <time>2021-08-03T09:40:25Z</time>
      </trkpt>
      <trkpt lat="42.31458" lon="-0.33938">
        <ele>915.41</ele>
        <time>2021-08-03T09:40:32Z</time>
      </trkpt>
      <trkpt lat="42.3144" lon="-0.34003">
        <ele>912.15</ele>
        <time>2021-08-03T09:40:36Z</time>
      </trkpt>
      <trkpt lat="42.31434" lon="-0.34017">
        <ele>911.34</ele>
        <time>2021-08-03T09:40:37Z</time>
      </trkpt>
      <trkpt lat="42.31396" lon="-0.34083">
        <ele>906.81</ele>
        <time>2021-08-03T09:40:42Z</time>
      </trkpt>
      <trkpt lat="42.3139" lon="-0.34095">
        <ele>905.94</ele>
        <time>2021-08-03T09:40:43Z</time>
      </trkpt>
      <trkpt lat="42.31383" lon="-0.34181">
        <ele>901.48</ele>
        <time>2021-08-03T09:40:49Z</time>
      </trkpt>
      <trkpt lat="42.31401" lon="-0.34227">
        <ele>900.13</ele>
        <time>2021-08-03T09:40:52Z</time>
      </trkpt>
      <trkpt lat="42.31423" lon="-0.34268">
        <ele>899.17</ele>
        <time>2021-08-03T09:40:55Z</time>
      </trkpt>
      <trkpt lat="42.31437" lon="-0.3438">
        <ele>898.17</ele>
        <time>2021-08-03T09:41:02Z</time>
      </trkpt>
      <trkpt lat="42.31434" lon="-0.34397">
        <ele>898.12</ele>
        <time>2021-08-03T09:41:03Z</time>
      </trkpt>
      <trkpt lat="42.31392" lon="-0.34554">
        <ele>898.6</ele>
        <time>2021-08-03T09:41:14Z</time>
      </trkpt>
      <trkpt lat="42.31387" lon="-0.3457">
        <ele>898.76</ele>
        <time>2021-08-03T09:41:15Z</time>
      </trkpt>
      <trkpt lat="42.31381" lon="-0.34704">
        <ele>899.63</ele>
        <time>2021-08-03T09:41:23Z</time>
      </trkpt>
      <trkpt lat="42.31377" lon="-0.34738">
        <ele>899.46</ele>
        <time>2021-08-03T09:41:26Z</time>
      </trkpt>
      <trkpt lat="42.31344" lon="-0.34805">
        <ele>897.97</ele>
        <time>2021-08-03T09:41:35Z</time>
      </trkpt>
      <trkpt lat="42.31302" lon="-0.34878">
        <ele>897.9</ele>
        <time>2021-08-03T09:41:43Z</time>
      </trkpt>
      <trkpt lat="42.31282" lon="-0.34913">
        <ele>898.59</ele>
        <time>2021-08-03T09:41:46Z</time>
      </trkpt>
      <trkpt lat="42.31234" lon="-0.34919">
        <ele>900.86</ele>
        <time>2021-08-03T09:41:52Z</time>
      </trkpt>
      <trkpt lat="42.31207" lon="-0.349">
        <ele>902.02</ele>
        <time>2021-08-03T09:41:55Z</time>
      </trkpt>
      <trkpt lat="42.31165" lon="-0.34847">
        <ele>904.72</ele>
        <time>2021-08-03T09:42:01Z</time>
      </trkpt>
      <trkpt lat="42.3115" lon="-0.34812">
        <ele>906.3</ele>
        <time>2021-08-03T09:42:04Z</time>
      </trkpt>
      <trkpt lat="42.3112" lon="-0.34801">
        <ele>908.46</ele>
        <time>2021-08-03T09:42:09Z</time>
      </trkpt>
      <trkpt lat="42.31115" lon="-0.34824">
        <ele>909.53</ele>
        <time>2021-08-03T09:42:11Z</time>
      </trkpt>
      <trkpt lat="42.31092" lon="-0.34953">
        <ele>914.19</ele>
        <time>2021-08-03T09:42:19Z</time>
      </trkpt>
      <trkpt lat="42.31089" lon="-0.34971">
        <ele>915.94</ele>
        <time>2021-08-03T09:42:20Z</time>
      </trkpt>
      <trkpt lat="42.31076" lon="-0.35024">
        <ele>918.86</ele>
        <time>2021-08-03T09:42:23Z</time>
      </trkpt>
      <trkpt lat="42.3109" lon="-0.35104">
        <ele>923.49</ele>
        <time>2021-08-03T09:42:28Z</time>
      </trkpt>
      <trkpt lat="42.31098" lon="-0.35172">
        <ele>928.49</ele>
        <time>2021-08-03T09:42:34Z</time>
      </trkpt>
      <trkpt lat="42.31057" lon="-0.35204">
        <ele>932.3</ele>
        <time>2021-08-03T09:42:38Z</time>
      </trkpt>
      <trkpt lat="42.31038" lon="-0.35231">
        <ele>934.17</ele>
        <time>2021-08-03T09:42:40Z</time>
      </trkpt>
      <trkpt lat="42.31019" lon="-0.3532">
        <ele>939.53</ele>
        <time>2021-08-03T09:42:46Z</time>
      </trkpt>
      <trkpt lat="42.31034" lon="-0.35437">
        <ele>942.81</ele>
        <time>2021-08-03T09:42:54Z</time>
      </trkpt>
      <trkpt lat="42.31074" lon="-0.35544">
        <ele>942.38</ele>
        <time>2021-08-03T09:43:02Z</time>
      </trkpt>
      <trkpt lat="42.31092" lon="-0.35613">
        <ele>941.61</ele>
        <time>2021-08-03T09:43:06Z</time>
      </trkpt>
      <trkpt lat="42.31081" lon="-0.35746">
        <ele>939.19</ele>
        <time>2021-08-03T09:43:13Z</time>
      </trkpt>
      <trkpt lat="42.31025" lon="-0.35911">
        <ele>939.47</ele>
        <time>2021-08-03T09:43:24Z</time>
      </trkpt>
      <trkpt lat="42.30974" lon="-0.35945">
        <ele>939.59</ele>
        <time>2021-08-03T09:43:30Z</time>
      </trkpt>
      <trkpt lat="42.30958" lon="-0.36006">
        <ele>940.28</ele>
        <time>2021-08-03T09:43:35Z</time>
      </trkpt>
      <trkpt lat="42.30949" lon="-0.36135">
        <ele>941.77</ele>
        <time>2021-08-03T09:43:43Z</time>
      </trkpt>
      <trkpt lat="42.30946" lon="-0.3615">
        <ele>941.77</ele>
        <time>2021-08-03T09:43:44Z</time>
      </trkpt>
      <trkpt lat="42.30925" lon="-0.36207">
        <ele>941.37</ele>
        <time>2021-08-03T09:43:49Z</time>
      </trkpt>
      <trkpt lat="42.30895" lon="-0.36236">
        <ele>940.83</ele>
        <time>2021-08-03T09:43:53Z</time>
      </trkpt>
      <trkpt lat="42.30878" lon="-0.36247">
        <ele>940.67</ele>
        <time>2021-08-03T09:43:55Z</time>
      </trkpt>
      <trkpt lat="42.3085" lon="-0.36333">
        <ele>941.2</ele>
        <time>2021-08-03T09:44:02Z</time>
      </trkpt>
      <trkpt lat="42.3085" lon="-0.36349">
        <ele>941.46</ele>
        <time>2021-08-03T09:44:03Z</time>
      </trkpt>
      <trkpt lat="42.30849" lon="-0.36411">
        <ele>942.54</ele>
        <time>2021-08-03T09:44:07Z</time>
      </trkpt>
      <trkpt lat="42.30863" lon="-0.36492">
        <ele>944.21</ele>
        <time>2021-08-03T09:44:12Z</time>
      </trkpt>
      <trkpt lat="42.30864" lon="-0.36558">
        <ele>945.4</ele>
        <time>2021-08-03T09:44:16Z</time>
      </trkpt>
      <trkpt lat="42.30852" lon="-0.36704">
        <ele>949.2</ele>
        <time>2021-08-03T09:44:25Z</time>
      </trkpt>
      <trkpt lat="42.3085" lon="-0.3672">
        <ele>949.68</ele>
        <time>2021-08-03T09:44:26Z</time>
      </trkpt>
      <trkpt lat="42.30842" lon="-0.36768">
        <ele>950.63</ele>
        <time>2021-08-03T09:44:29Z</time>
      </trkpt>
      <trkpt lat="42.30841" lon="-0.36915">
        <ele>952.85</ele>
        <time>2021-08-03T09:44:37Z</time>
      </trkpt>
      <trkpt lat="42.30844" lon="-0.37008">
        <ele>952.83</ele>
        <time>2021-08-03T09:44:42Z</time>
      </trkpt>
      <trkpt lat="42.30811" lon="-0.37126">
        <ele>952.87</ele>
        <time>2021-08-03T09:44:49Z</time>
      </trkpt>
      <trkpt lat="42.30771" lon="-0.37245">
        <ele>954.75</ele>
        <time>2021-08-03T09:44:56Z</time>
      </trkpt>
      <trkpt lat="42.3071" lon="-0.37365">
        <ele>957.11</ele>
        <time>2021-08-03T09:45:04Z</time>
      </trkpt>
      <trkpt lat="42.30719" lon="-0.3745">
        <ele>958.13</ele>
        <time>2021-08-03T09:45:10Z</time>
      </trkpt>
      <trkpt lat="42.30753" lon="-0.37475">
        <ele>957.88</ele>
        <time>2021-08-03T09:45:13Z</time>
      </trkpt>
      <trkpt lat="42.30776" lon="-0.37486">
        <ele>957.34</ele>
        <time>2021-08-03T09:45:15Z</time>
      </trkpt>
      <trkpt lat="42.30841" lon="-0.37576">
        <ele>954.27</ele>
        <time>2021-08-03T09:45:22Z</time>
      </trkpt>
      <trkpt lat="42.30867" lon="-0.37617">
        <ele>953.24</ele>
        <time>2021-08-03T09:45:25Z</time>
      </trkpt>
      <trkpt lat="42.30891" lon="-0.37696">
        <ele>951.79</ele>
        <time>2021-08-03T09:45:30Z</time>
      </trkpt>
      <trkpt lat="42.30948" lon="-0.37807">
        <ele>950.39</ele>
        <time>2021-08-03T09:45:38Z</time>
      </trkpt>
      <trkpt lat="42.30967" lon="-0.37871">
        <ele>949.74</ele>
        <time>2021-08-03T09:45:42Z</time>
      </trkpt>
      <trkpt lat="42.30995" lon="-0.38069">
        <ele>950.08</ele>
        <time>2021-08-03T09:45:54Z</time>
      </trkpt>
      <trkpt lat="42.31002" lon="-0.38095">
        <ele>950.12</ele>
        <time>2021-08-03T09:45:56Z</time>
      </trkpt>
      <trkpt lat="42.31053" lon="-0.38133">
        <ele>950.02</ele>
        <time>2021-08-03T09:46:02Z</time>
      </trkpt>
      <trkpt lat="42.3109" lon="-0.38137">
        <ele>949.25</ele>
        <time>2021-08-03T09:46:06Z</time>
      </trkpt>
      <trkpt lat="42.31107" lon="-0.38172">
        <ele>948.18</ele>
        <time>2021-08-03T09:46:10Z</time>
      </trkpt>
      <trkpt lat="42.31118" lon="-0.38196">
        <ele>947.27</ele>
        <time>2021-08-03T09:46:15Z</time>
      </trkpt>
      <trkpt lat="42.31156" lon="-0.38238">
        <ele>947.73</ele>
        <time>2021-08-03T09:46:23Z</time>
      </trkpt>
      <trkpt lat="42.3119" lon="-0.38225">
        <ele>949.12</ele>
        <time>2021-08-03T09:46:29Z</time>
      </trkpt>
      <trkpt lat="42.31176" lon="-0.38165">
        <ele>951.7</ele>
        <time>2021-08-03T09:46:35Z</time>
      </trkpt>
      <trkpt lat="42.31205" lon="-0.38129">
        <ele>954.64</ele>
        <time>2021-08-03T09:46:40Z</time>
      </trkpt>
      <trkpt lat="42.31225" lon="-0.38117">
        <ele>956.41</ele>
        <time>2021-08-03T09:46:42Z</time>
      </trkpt>
      <trkpt lat="42.31643" lon="-0.44734">
        <ele>1081.95</ele>
        <time>2021-08-03T09:58:35Z</time>
      </trkpt>
      <trkpt lat="42.31639" lon="-0.44753">
        <ele>1081.95</ele>
        <time>2021-08-03T09:58:36Z</time>
      </trkpt>
      <trkpt lat="42.31597" lon="-0.44805">
        <ele>1081.13</ele>
        <time>2021-08-03T09:58:41Z</time>
      </trkpt>
      <trkpt lat="42.31557" lon="-0.4487">
        <ele>1081.41</ele>
        <time>2021-08-03T09:58:47Z</time>
      </trkpt>
      <trkpt lat="42.31546" lon="-0.44921">
        <ele>1081.87</ele>
        <time>2021-08-03T09:58:50Z</time>
      </trkpt>
      <trkpt lat="42.31544" lon="-0.44953">
        <ele>1082.63</ele>
        <time>2021-08-03T09:58:52Z</time>
      </trkpt>
      <trkpt lat="42.31546" lon="-0.4497">
        <ele>1083.14</ele>
        <time>2021-08-03T09:58:53Z</time>
      </trkpt>
      <trkpt lat="42.31549" lon="-0.44986">
        <ele>1083.54</ele>
        <time>2021-08-03T09:58:54Z</time>
      </trkpt>
      <trkpt lat="42.31596" lon="-0.45173">
        <ele>1085.82</ele>
        <time>2021-08-03T09:59:05Z</time>
      </trkpt>
      <trkpt lat="42.31591" lon="-0.45226">
        <ele>1084.01</ele>
        <time>2021-08-03T09:59:09Z</time>
      </trkpt>
      <trkpt lat="42.31604" lon="-0.45303">
        <ele>1080.37</ele>
        <time>2021-08-03T09:59:16Z</time>
      </trkpt>
      <trkpt lat="42.31619" lon="-0.45392">
        <ele>1078.61</ele>
        <time>2021-08-03T09:59:23Z</time>
      </trkpt>
      <trkpt lat="42.31612" lon="-0.45463">
        <ele>1078.5</ele>
        <time>2021-08-03T09:59:27Z</time>
      </trkpt>
      <trkpt lat="42.31596" lon="-0.45556">
        <ele>1080.15</ele>
        <time>2021-08-03T09:59:33Z</time>
      </trkpt>
      <trkpt lat="42.31611" lon="-0.45635">
        <ele>1083.49</ele>
        <time>2021-08-03T09:59:39Z</time>
      </trkpt>
      <trkpt lat="42.31614" lon="-0.45667">
        <ele>1084.58</ele>
        <time>2021-08-03T09:59:41Z</time>
      </trkpt>
      <trkpt lat="42.316" lon="-0.45745">
        <ele>1088.4</ele>
        <time>2021-08-03T09:59:47Z</time>
      </trkpt>
      <trkpt lat="42.31574" lon="-0.45775">
        <ele>1089.9</ele>
        <time>2021-08-03T09:59:50Z</time>
      </trkpt>
      <trkpt lat="42.31553" lon="-0.45809">
        <ele>1092.11</ele>
        <time>2021-08-03T09:59:53Z</time>
      </trkpt>
      <trkpt lat="42.31544" lon="-0.45879">
        <ele>1096.87</ele>
        <time>2021-08-03T09:59:58Z</time>
      </trkpt>
      <trkpt lat="42.31576" lon="-0.4595">
        <ele>1100.79</ele>
        <time>2021-08-03T10:00:05Z</time>
      </trkpt>
      <trkpt lat="42.31558" lon="-0.46007">
        <ele>1102.46</ele>
        <time>2021-08-03T10:00:10Z</time>
      </trkpt>
      <trkpt lat="42.31559" lon="-0.4607">
        <ele>1103.97</ele>
        <time>2021-08-03T10:00:15Z</time>
      </trkpt>
      <trkpt lat="42.31535" lon="-0.46121">
        <ele>1104.27</ele>
        <time>2021-08-03T10:00:21Z</time>
      </trkpt>
      <trkpt lat="42.31537" lon="-0.46172">
        <ele>1104.82</ele>
        <time>2021-08-03T10:00:26Z</time>
      </trkpt>
      <trkpt lat="42.31541" lon="-0.46221">
        <ele>1106.07</ele>
        <time>2021-08-03T10:00:31Z</time>
      </trkpt>
      <trkpt lat="42.3154" lon="-0.46235">
        <ele>1106.21</ele>
        <time>2021-08-03T10:00:32Z</time>
      </trkpt>
      <trkpt lat="42.31538" lon="-0.46354">
        <ele>1106.61</ele>
        <time>2021-08-03T10:00:41Z</time>
      </trkpt>
      <trkpt lat="42.31561" lon="-0.46437">
        <ele>1106.44</ele>
        <time>2021-08-03T10:00:47Z</time>
      </trkpt>
      <trkpt lat="42.31582" lon="-0.46477">
        <ele>1106.36</ele>
        <time>2021-08-03T10:00:50Z</time>
      </trkpt>
      <trkpt lat="42.31594" lon="-0.46539">
        <ele>1105.89</ele>
        <time>2021-08-03T10:00:54Z</time>
      </trkpt>
      <trkpt lat="42.31593" lon="-0.46651">
        <ele>1105.27</ele>
        <time>2021-08-03T10:01:01Z</time>
      </trkpt>
      <trkpt lat="42.31631" lon="-0.46734">
        <ele>1105.92</ele>
        <time>2021-08-03T10:01:08Z</time>
      </trkpt>
      <trkpt lat="42.31647" lon="-0.46811">
        <ele>1107.87</ele>
        <time>2021-08-03T10:01:13Z</time>
      </trkpt>
      <trkpt lat="42.31664" lon="-0.46871">
        <ele>1108.76</ele>
        <time>2021-08-03T10:01:18Z</time>
      </trkpt>
      <trkpt lat="42.31701" lon="-0.46923">
        <ele>1111.63</ele>
        <time>2021-08-03T10:01:23Z</time>
      </trkpt>
      <trkpt lat="42.31762" lon="-0.4696">
        <ele>1114.77</ele>
        <time>2021-08-03T10:01:30Z</time>
      </trkpt>
      <trkpt lat="42.31781" lon="-0.46979">
        <ele>1115.71</ele>
        <time>2021-08-03T10:01:32Z</time>
      </trkpt>
      <trkpt lat="42.31847" lon="-0.47084">
        <ele>1115.45</ele>
        <time>2021-08-03T10:01:40Z</time>
      </trkpt>
      <trkpt lat="42.31886" lon="-0.47193">
        <ele>1115.03</ele>
        <time>2021-08-03T10:01:48Z</time>
      </trkpt>
      <trkpt lat="42.3189" lon="-0.47206">
        <ele>1115.2</ele>
        <time>2021-08-03T10:01:49Z</time>
      </trkpt>
      <trkpt lat="42.31915" lon="-0.47253">
        <ele>1116.21</ele>
        <time>2021-08-03T10:01:53Z</time>
      </trkpt>
      <trkpt lat="42.31942" lon="-0.47319">
        <ele>1118.2</ele>
        <time>2021-08-03T10:01:58Z</time>
      </trkpt>
      <trkpt lat="42.31949" lon="-0.47372">
        <ele>1119.32</ele>
        <time>2021-08-03T10:02:02Z</time>
      </trkpt>
      <trkpt lat="42.31982" lon="-0.4741">
        <ele>1119.77</ele>
        <time>2021-08-03T10:02:07Z</time>
      </trkpt>
      <trkpt lat="42.32082" lon="-0.47474">
        <ele>1120.68</ele>
        <time>2021-08-03T10:02:16Z</time>
      </trkpt>
      <trkpt lat="42.32187" lon="-0.47496">
        <ele>1120.72</ele>
        <time>2021-08-03T10:02:25Z</time>
      </trkpt>
      <trkpt lat="42.32252" lon="-0.47522">
        <ele>1118.33</ele>
        <time>2021-08-03T10:02:30Z</time>
      </trkpt>
      <trkpt lat="42.3232" lon="-0.47564">
        <ele>1113.69</ele>
        <time>2021-08-03T10:02:35Z</time>
      </trkpt>
      <trkpt lat="42.32377" lon="-0.47598">
        <ele>1109.94</ele>
        <time>2021-08-03T10:02:39Z</time>
      </trkpt>
      <trkpt lat="42.32402" lon="-0.47618">
        <ele>1108.01</ele>
        <time>2021-08-03T10:02:41Z</time>
      </trkpt>
      <trkpt lat="42.32448" lon="-0.47689">
        <ele>1104.08</ele>
        <time>2021-08-03T10:02:46Z</time>
      </trkpt>
      <trkpt lat="42.32496" lon="-0.47728">
        <ele>1100.19</ele>
        <time>2021-08-03T10:02:51Z</time>
      </trkpt>
      <trkpt lat="42.32509" lon="-0.47749">
        <ele>1098.76</ele>
        <time>2021-08-03T10:02:53Z</time>
      </trkpt>
      <trkpt lat="42.32585" lon="-0.4787">
        <ele>1094.97</ele>
        <time>2021-08-03T10:03:03Z</time>
      </trkpt>
      <trkpt lat="42.32698" lon="-0.4798">
        <ele>1091.4</ele>
        <time>2021-08-03T10:03:13Z</time>
      </trkpt>
      <trkpt lat="42.32745" lon="-0.48028">
        <ele>1088.1</ele>
        <time>2021-08-03T10:03:17Z</time>
      </trkpt>
      <trkpt lat="42.32792" lon="-0.48072">
        <ele>1084.39</ele>
        <time>2021-08-03T10:03:21Z</time>
      </trkpt>
      <trkpt lat="42.32841" lon="-0.48118">
        <ele>1080.94</ele>
        <time>2021-08-03T10:03:25Z</time>
      </trkpt>
      <trkpt lat="42.32889" lon="-0.48163">
        <ele>1077.2</ele>
        <time>2021-08-03T10:03:29Z</time>
      </trkpt>
      <trkpt lat="42.32945" lon="-0.48193">
        <ele>1073.59</ele>
        <time>2021-08-03T10:03:33Z</time>
      </trkpt>
      <trkpt lat="42.32958" lon="-0.48199">
        <ele>1072.8</ele>
        <time>2021-08-03T10:03:34Z</time>
      </trkpt>
      <trkpt lat="42.33014" lon="-0.48247">
        <ele>1068.68</ele>
        <time>2021-08-03T10:03:39Z</time>
      </trkpt>
      <trkpt lat="42.33075" lon="-0.48329">
        <ele>1064.74</ele>
        <time>2021-08-03T10:03:45Z</time>
      </trkpt>
      <trkpt lat="42.33151" lon="-0.48425">
        <ele>1061.51</ele>
        <time>2021-08-03T10:03:52Z</time>
      </trkpt>
      <trkpt lat="42.3317" lon="-0.48447">
        <ele>1060.14</ele>
        <time>2021-08-03T10:03:54Z</time>
      </trkpt>
      <trkpt lat="42.33182" lon="-0.48484">
        <ele>1056.47</ele>
        <time>2021-08-03T10:03:58Z</time>
      </trkpt>
      <trkpt lat="42.33136" lon="-0.48512">
        <ele>1051.67</ele>
        <time>2021-08-03T10:04:03Z</time>
      </trkpt>
      <trkpt lat="42.33092" lon="-0.48528">
        <ele>1049.64</ele>
        <time>2021-08-03T10:04:07Z</time>
      </trkpt>
      <trkpt lat="42.33073" lon="-0.48573">
        <ele>1046.2</ele>
        <time>2021-08-03T10:04:12Z</time>
      </trkpt>
      <trkpt lat="42.33095" lon="-0.48624">
        <ele>1042.74</ele>
        <time>2021-08-03T10:04:16Z</time>
      </trkpt>
      <trkpt lat="42.33114" lon="-0.48646">
        <ele>1041.04</ele>
        <time>2021-08-03T10:04:18Z</time>
      </trkpt>
      <trkpt lat="42.33155" lon="-0.48697">
        <ele>1037.82</ele>
        <time>2021-08-03T10:04:22Z</time>
      </trkpt>
      <trkpt lat="42.33196" lon="-0.48711">
        <ele>1033.01</ele>
        <time>2021-08-03T10:04:27Z</time>
      </trkpt>
      <trkpt lat="42.33198" lon="-0.48671">
        <ele>1029.73</ele>
        <time>2021-08-03T10:04:31Z</time>
      </trkpt>
      <trkpt lat="42.33194" lon="-0.48629">
        <ele>1026.15</ele>
        <time>2021-08-03T10:04:36Z</time>
      </trkpt>
      <trkpt lat="42.33219" lon="-0.48631">
        <ele>1023.78</ele>
        <time>2021-08-03T10:04:39Z</time>
      </trkpt>
      <trkpt lat="42.33249" lon="-0.48642">
        <ele>1022.03</ele>
        <time>2021-08-03T10:04:42Z</time>
      </trkpt>
      <trkpt lat="42.33265" lon="-0.48683">
        <ele>1017.99</ele>
        <time>2021-08-03T10:04:47Z</time>
      </trkpt>
      <trkpt lat="42.33273" lon="-0.48745">
        <ele>1013.99</ele>
        <time>2021-08-03T10:04:52Z</time>
      </trkpt>
      <trkpt lat="42.33298" lon="-0.48797">
        <ele>1011.01</ele>
        <time>2021-08-03T10:04:56Z</time>
      </trkpt>
      <trkpt lat="42.33335" lon="-0.48831">
        <ele>1007.38</ele>
        <time>2021-08-03T10:05:00Z</time>
      </trkpt>
      <trkpt lat="42.33385" lon="-0.48879">
        <ele>1003.1</ele>
        <time>2021-08-03T10:05:05Z</time>
      </trkpt>
      <trkpt lat="42.33396" lon="-0.48886">
        <ele>1002.37</ele>
        <time>2021-08-03T10:05:06Z</time>
      </trkpt>
      <trkpt lat="42.33438" lon="-0.48915">
        <ele>999.16</ele>
        <time>2021-08-03T10:05:10Z</time>
      </trkpt>
      <trkpt lat="42.33447" lon="-0.48923">
        <ele>998.3</ele>
        <time>2021-08-03T10:05:11Z</time>
      </trkpt>
      <trkpt lat="42.33477" lon="-0.48965">
        <ele>995.38</ele>
        <time>2021-08-03T10:05:15Z</time>
      </trkpt>
      <trkpt lat="42.33561" lon="-0.49059">
        <ele>992.46</ele>
        <time>2021-08-03T10:05:24Z</time>
      </trkpt>
      <trkpt lat="42.33679" lon="-0.49196">
        <ele>989.58</ele>
        <time>2021-08-03T10:05:36Z</time>
      </trkpt>
      <trkpt lat="42.33706" lon="-0.49216">
        <ele>988.47</ele>
        <time>2021-08-03T10:05:39Z</time>
      </trkpt>
      <trkpt lat="42.33712" lon="-0.49227">
        <ele>988.12</ele>
        <time>2021-08-03T10:05:40Z</time>
      </trkpt>
      <trkpt lat="42.33751" lon="-0.49317">
        <ele>985.78</ele>
        <time>2021-08-03T10:05:46Z</time>
      </trkpt>
      <trkpt lat="42.33791" lon="-0.49404">
        <ele>982.5</ele>
        <time>2021-08-03T10:05:52Z</time>
      </trkpt>
      <trkpt lat="42.33843" lon="-0.49481">
        <ele>978.8</ele>
        <time>2021-08-03T10:05:59Z</time>
      </trkpt>
      <trkpt lat="42.33851" lon="-0.4956">
        <ele>978.15</ele>
        <time>2021-08-03T10:06:05Z</time>
      </trkpt>
      <trkpt lat="42.33853" lon="-0.49642">
        <ele>977.84</ele>
        <time>2021-08-03T10:06:11Z</time>
      </trkpt>
      <trkpt lat="42.33851" lon="-0.49655">
        <ele>977.71</ele>
        <time>2021-08-03T10:06:12Z</time>
      </trkpt>
      <trkpt lat="42.33868" lon="-0.49733">
        <ele>976.59</ele>
        <time>2021-08-03T10:06:19Z</time>
      </trkpt>
      <trkpt lat="42.33885" lon="-0.49746">
        <ele>976.62</ele>
        <time>2021-08-03T10:06:21Z</time>
      </trkpt>
      <trkpt lat="42.33906" lon="-0.49812">
        <ele>977.8</ele>
        <time>2021-08-03T10:06:27Z</time>
      </trkpt>
      <trkpt lat="42.33894" lon="-0.49852">
        <ele>978.66</ele>
        <time>2021-08-03T10:06:31Z</time>
      </trkpt>
      <trkpt lat="42.33856" lon="-0.49926">
        <ele>979.93</ele>
        <time>2021-08-03T10:06:37Z</time>
      </trkpt>
      <trkpt lat="42.33836" lon="-0.49959">
        <ele>980.7</ele>
        <time>2021-08-03T10:06:40Z</time>
      </trkpt>
      <trkpt lat="42.33846" lon="-0.50002">
        <ele>981.17</ele>
        <time>2021-08-03T10:06:46Z</time>
      </trkpt>
      <trkpt lat="42.33854" lon="-0.50008">
        <ele>981.27</ele>
        <time>2021-08-03T10:06:47Z</time>
      </trkpt>
      <trkpt lat="42.33933" lon="-0.5008">
        <ele>984.44</ele>
        <time>2021-08-03T10:06:55Z</time>
      </trkpt>
      <trkpt lat="42.33975" lon="-0.5014">
        <ele>987.73</ele>
        <time>2021-08-03T10:06:59Z</time>
      </trkpt>
      <trkpt lat="42.34012" lon="-0.50203">
        <ele>991.35</ele>
        <time>2021-08-03T10:07:03Z</time>
      </trkpt>
      <trkpt lat="42.3405" lon="-0.50291">
        <ele>994.91</ele>
        <time>2021-08-03T10:07:08Z</time>
      </trkpt>
      <trkpt lat="42.34078" lon="-0.5036">
        <ele>998.31</ele>
        <time>2021-08-03T10:07:12Z</time>
      </trkpt>
      <trkpt lat="42.34092" lon="-0.50445">
        <ele>1002.45</ele>
        <time>2021-08-03T10:07:17Z</time>
      </trkpt>
      <trkpt lat="42.34109" lon="-0.5048">
        <ele>1004.25</ele>
        <time>2021-08-03T10:07:20Z</time>
      </trkpt>
      <trkpt lat="42.3413" lon="-0.50567">
        <ele>1006.99</ele>
        <time>2021-08-03T10:07:27Z</time>
      </trkpt>
      <trkpt lat="42.34097" lon="-0.50613">
        <ele>1008.28</ele>
        <time>2021-08-03T10:07:32Z</time>
      </trkpt>
      <trkpt lat="42.34077" lon="-0.50624">
        <ele>1008.64</ele>
        <time>2021-08-03T10:07:34Z</time>
      </trkpt>
      <trkpt lat="42.34028" lon="-0.50716">
        <ele>1011.03</ele>
        <time>2021-08-03T10:07:41Z</time>
      </trkpt>
      <trkpt lat="42.34019" lon="-0.50766">
        <ele>1012.52</ele>
        <time>2021-08-03T10:07:44Z</time>
      </trkpt>
      <trkpt lat="42.34018" lon="-0.50798">
        <ele>1013.21</ele>
        <time>2021-08-03T10:07:46Z</time>
      </trkpt>
      <trkpt lat="42.34046" lon="-0.50875">
        <ele>1013.63</ele>
        <time>2021-08-03T10:07:51Z</time>
      </trkpt>
      <trkpt lat="42.3405" lon="-0.50924">
        <ele>1013.12</ele>
        <time>2021-08-03T10:07:54Z</time>
      </trkpt>
      <trkpt lat="42.34022" lon="-0.51065">
        <ele>1009.76</ele>
        <time>2021-08-03T10:08:02Z</time>
      </trkpt>
      <trkpt lat="42.33993" lon="-0.51172">
        <ele>1006.22</ele>
        <time>2021-08-03T10:08:08Z</time>
      </trkpt>
      <trkpt lat="42.3399" lon="-0.5119">
        <ele>1005.37</ele>
        <time>2021-08-03T10:08:09Z</time>
      </trkpt>
      <trkpt lat="42.3399" lon="-0.51261">
        <ele>1001.44</ele>
        <time>2021-08-03T10:08:13Z</time>
      </trkpt>
      <trkpt lat="42.34009" lon="-0.51312">
        <ele>997.95</ele>
        <time>2021-08-03T10:08:17Z</time>
      </trkpt>
      <trkpt lat="42.34026" lon="-0.51331">
        <ele>996.1</ele>
        <time>2021-08-03T10:08:19Z</time>
      </trkpt>
      <trkpt lat="42.34046" lon="-0.5135">
        <ele>994.39</ele>
        <time>2021-08-03T10:08:21Z</time>
      </trkpt>
      <trkpt lat="42.3406" lon="-0.5143">
        <ele>990.53</ele>
        <time>2021-08-03T10:08:26Z</time>
      </trkpt>
      <trkpt lat="42.34057" lon="-0.51446">
        <ele>989.75</ele>
        <time>2021-08-03T10:08:27Z</time>
      </trkpt>
      <trkpt lat="42.34035" lon="-0.51523">
        <ele>985.44</ele>
        <time>2021-08-03T10:08:33Z</time>
      </trkpt>
      <trkpt lat="42.34032" lon="-0.51537">
        <ele>984.8</ele>
        <time>2021-08-03T10:08:34Z</time>
      </trkpt>
      <trkpt lat="42.34041" lon="-0.51598">
        <ele>981</ele>
        <time>2021-08-03T10:08:40Z</time>
      </trkpt>
      <trkpt lat="42.34085" lon="-0.51628">
        <ele>978.45</ele>
        <time>2021-08-03T10:08:44Z</time>
      </trkpt>
      <trkpt lat="42.34095" lon="-0.51641">
        <ele>977.92</ele>
        <time>2021-08-03T10:08:45Z</time>
      </trkpt>
      <trkpt lat="42.34125" lon="-0.51696">
        <ele>975.32</ele>
        <time>2021-08-03T10:08:49Z</time>
      </trkpt>
      <trkpt lat="42.34136" lon="-0.5176">
        <ele>972.57</ele>
        <time>2021-08-03T10:08:53Z</time>
      </trkpt>
      <trkpt lat="42.34135" lon="-0.5181">
        <ele>970.46</ele>
        <time>2021-08-03T10:08:56Z</time>
      </trkpt>
      <trkpt lat="42.34161" lon="-0.51867">
        <ele>966.66</ele>
        <time>2021-08-03T10:09:01Z</time>
      </trkpt>
      <trkpt lat="42.3418" lon="-0.51882">
        <ele>965.4</ele>
        <time>2021-08-03T10:09:03Z</time>
      </trkpt>
      <trkpt lat="42.34226" lon="-0.51958">
        <ele>962.24</ele>
        <time>2021-08-03T10:09:09Z</time>
      </trkpt>
      <trkpt lat="42.34234" lon="-0.52067">
        <ele>958.83</ele>
        <time>2021-08-03T10:09:16Z</time>
      </trkpt>
      <trkpt lat="42.34254" lon="-0.52128">
        <ele>957.12</ele>
        <time>2021-08-03T10:09:20Z</time>
      </trkpt>
      <trkpt lat="42.34342" lon="-0.52275">
        <ele>953.59</ele>
        <time>2021-08-03T10:09:30Z</time>
      </trkpt>
      <trkpt lat="42.34447" lon="-0.52441">
        <ele>950.62</ele>
        <time>2021-08-03T10:09:41Z</time>
      </trkpt>
      <trkpt lat="42.34464" lon="-0.52512">
        <ele>950.01</ele>
        <time>2021-08-03T10:09:45Z</time>
      </trkpt>
      <trkpt lat="42.34467" lon="-0.5255">
        <ele>949.63</ele>
        <time>2021-08-03T10:09:47Z</time>
      </trkpt>
      <trkpt lat="42.34487" lon="-0.52618">
        <ele>948.63</ele>
        <time>2021-08-03T10:09:51Z</time>
      </trkpt>
      <trkpt lat="42.3456" lon="-0.52762">
        <ele>945.04</ele>
        <time>2021-08-03T10:10:00Z</time>
      </trkpt>
      <trkpt lat="42.34616" lon="-0.52894">
        <ele>941.67</ele>
        <time>2021-08-03T10:10:07Z</time>
      </trkpt>
      <trkpt lat="42.34662" lon="-0.53024">
        <ele>938.42</ele>
        <time>2021-08-03T10:10:14Z</time>
      </trkpt>
      <trkpt lat="42.34704" lon="-0.53109">
        <ele>936.12</ele>
        <time>2021-08-03T10:10:19Z</time>
      </trkpt>
      <trkpt lat="42.34721" lon="-0.53162">
        <ele>934.74</ele>
        <time>2021-08-03T10:10:22Z</time>
      </trkpt>
      <trkpt lat="42.34755" lon="-0.53225">
        <ele>932.68</ele>
        <time>2021-08-03T10:10:26Z</time>
      </trkpt>
      <trkpt lat="42.34842" lon="-0.53311">
        <ele>928.86</ele>
        <time>2021-08-03T10:10:33Z</time>
      </trkpt>
      <trkpt lat="42.34892" lon="-0.53362">
        <ele>925.85</ele>
        <time>2021-08-03T10:10:37Z</time>
      </trkpt>
      <trkpt lat="42.34941" lon="-0.5342">
        <ele>922.82</ele>
        <time>2021-08-03T10:10:41Z</time>
      </trkpt>
      <trkpt lat="42.34982" lon="-0.53489">
        <ele>919.43</ele>
        <time>2021-08-03T10:10:45Z</time>
      </trkpt>
      <trkpt lat="42.35002" lon="-0.53525">
        <ele>917.7</ele>
        <time>2021-08-03T10:10:47Z</time>
      </trkpt>
      <trkpt lat="42.35036" lon="-0.53632">
        <ele>912.85</ele>
        <time>2021-08-03T10:10:52Z</time>
      </trkpt>
      <trkpt lat="42.35044" lon="-0.53722">
        <ele>908.94</ele>
        <time>2021-08-03T10:10:56Z</time>
      </trkpt>
      <trkpt lat="42.35044" lon="-0.5379">
        <ele>905.9</ele>
        <time>2021-08-03T10:10:59Z</time>
      </trkpt>
      <trkpt lat="42.35044" lon="-0.53853">
        <ele>902.77</ele>
        <time>2021-08-03T10:11:02Z</time>
      </trkpt>
      <trkpt lat="42.35051" lon="-0.53917">
        <ele>899.52</ele>
        <time>2021-08-03T10:11:05Z</time>
      </trkpt>
      <trkpt lat="42.35078" lon="-0.53988">
        <ele>895.24</ele>
        <time>2021-08-03T10:11:09Z</time>
      </trkpt>
      <trkpt lat="42.35088" lon="-0.54004">
        <ele>894.16</ele>
        <time>2021-08-03T10:11:10Z</time>
      </trkpt>
      <trkpt lat="42.35121" lon="-0.54046">
        <ele>891.16</ele>
        <time>2021-08-03T10:11:13Z</time>
      </trkpt>
      <trkpt lat="42.35166" lon="-0.54084">
        <ele>886.86</ele>
        <time>2021-08-03T10:11:17Z</time>
      </trkpt>
      <trkpt lat="42.35182" lon="-0.54116">
        <ele>883.67</ele>
        <time>2021-08-03T10:11:19Z</time>
      </trkpt>
      <trkpt lat="42.35227" lon="-0.54195">
        <ele>878.84</ele>
        <time>2021-08-03T10:11:24Z</time>
      </trkpt>
      <trkpt lat="42.35277" lon="-0.5424">
        <ele>874.5</ele>
        <time>2021-08-03T10:11:28Z</time>
      </trkpt>
      <trkpt lat="42.3529" lon="-0.54251">
        <ele>873.31</ele>
        <time>2021-08-03T10:11:29Z</time>
      </trkpt>
      <trkpt lat="42.35312" lon="-0.54279">
        <ele>870.82</ele>
        <time>2021-08-03T10:11:31Z</time>
      </trkpt>
      <trkpt lat="42.35353" lon="-0.54325">
        <ele>865.71</ele>
        <time>2021-08-03T10:11:35Z</time>
      </trkpt>
      <trkpt lat="42.3536" lon="-0.5434">
        <ele>864.39</ele>
        <time>2021-08-03T10:11:36Z</time>
      </trkpt>
      <trkpt lat="42.35385" lon="-0.54391">
        <ele>859.27</ele>
        <time>2021-08-03T10:11:40Z</time>
      </trkpt>
      <trkpt lat="42.354" lon="-0.54433">
        <ele>855.82</ele>
        <time>2021-08-03T10:11:43Z</time>
      </trkpt>
      <trkpt lat="42.3544" lon="-0.54503">
        <ele>850.87</ele>
        <time>2021-08-03T10:11:48Z</time>
      </trkpt>
      <trkpt lat="42.35468" lon="-0.54551">
        <ele>847.73</ele>
        <time>2021-08-03T10:11:51Z</time>
      </trkpt>
      <trkpt lat="42.35495" lon="-0.54602">
        <ele>844.27</ele>
        <time>2021-08-03T10:11:54Z</time>
      </trkpt>
      <trkpt lat="42.35503" lon="-0.5462">
        <ele>843.16</ele>
        <time>2021-08-03T10:11:55Z</time>
      </trkpt>
      <trkpt lat="42.35518" lon="-0.54693">
        <ele>838.27</ele>
        <time>2021-08-03T10:11:59Z</time>
      </trkpt>
      <trkpt lat="42.35514" lon="-0.54729">
        <ele>835.86</ele>
        <time>2021-08-03T10:12:01Z</time>
      </trkpt>
      <trkpt lat="42.35504" lon="-0.54767">
        <ele>832.72</ele>
        <time>2021-08-03T10:12:04Z</time>
      </trkpt>
      <trkpt lat="42.35528" lon="-0.5485">
        <ele>829.54</ele>
        <time>2021-08-03T10:12:11Z</time>
      </trkpt>
      <trkpt lat="42.35552" lon="-0.54865">
        <ele>829.37</ele>
        <time>2021-08-03T10:12:13Z</time>
      </trkpt>
      <trkpt lat="42.35591" lon="-0.54892">
        <ele>829.39</ele>
        <time>2021-08-03T10:12:16Z</time>
      </trkpt>
      <trkpt lat="42.35673" lon="-0.55042">
        <ele>831.45</ele>
        <time>2021-08-03T10:12:25Z</time>
      </trkpt>
      <trkpt lat="42.35719" lon="-0.55092">
        <ele>833.81</ele>
        <time>2021-08-03T10:12:29Z</time>
      </trkpt>
      <trkpt lat="42.35759" lon="-0.55121">
        <ele>836.17</ele>
        <time>2021-08-03T10:12:32Z</time>
      </trkpt>
      <trkpt lat="42.35832" lon="-0.55139">
        <ele>840.29</ele>
        <time>2021-08-03T10:12:37Z</time>
      </trkpt>
      <trkpt lat="42.35868" lon="-0.55175">
        <ele>841.96</ele>
        <time>2021-08-03T10:12:40Z</time>
      </trkpt>
      <trkpt lat="42.35956" lon="-0.5529">
        <ele>839.37</ele>
        <time>2021-08-03T10:12:48Z</time>
      </trkpt>
      <trkpt lat="42.36023" lon="-0.55344">
        <ele>834.94</ele>
        <time>2021-08-03T10:12:53Z</time>
      </trkpt>
      <trkpt lat="42.36057" lon="-0.55385">
        <ele>832.07</ele>
        <time>2021-08-03T10:12:56Z</time>
      </trkpt>
      <trkpt lat="42.36086" lon="-0.55406">
        <ele>827.61</ele>
        <time>2021-08-03T10:12:59Z</time>
      </trkpt>
      <trkpt lat="42.36119" lon="-0.55375">
        <ele>823.85</ele>
        <time>2021-08-03T10:13:03Z</time>
      </trkpt>
      <trkpt lat="42.36162" lon="-0.55373">
        <ele>822.08</ele>
        <time>2021-08-03T10:13:08Z</time>
      </trkpt>
      <trkpt lat="42.36178" lon="-0.55398">
        <ele>821.98</ele>
        <time>2021-08-03T10:13:10Z</time>
      </trkpt>
      <trkpt lat="42.36217" lon="-0.55478">
        <ele>823.31</ele>
        <time>2021-08-03T10:13:15Z</time>
      </trkpt>
      <trkpt lat="42.36326" lon="-0.556">
        <ele>826.16</ele>
        <time>2021-08-03T10:13:25Z</time>
      </trkpt>
      <trkpt lat="42.36337" lon="-0.5561">
        <ele>826.06</ele>
        <time>2021-08-03T10:13:26Z</time>
      </trkpt>
      <trkpt lat="42.36457" lon="-0.55648">
        <ele>824.34</ele>
        <time>2021-08-03T10:13:35Z</time>
      </trkpt>
      <trkpt lat="42.36499" lon="-0.55658">
        <ele>822.76</ele>
        <time>2021-08-03T10:13:38Z</time>
      </trkpt>
      <trkpt lat="42.36556" lon="-0.55715">
        <ele>819.04</ele>
        <time>2021-08-03T10:13:43Z</time>
      </trkpt>
      <trkpt lat="42.36578" lon="-0.55785">
        <ele>815.56</ele>
        <time>2021-08-03T10:13:47Z</time>
      </trkpt>
      <trkpt lat="42.3661" lon="-0.55853">
        <ele>811.69</ele>
        <time>2021-08-03T10:13:52Z</time>
      </trkpt>
      <trkpt lat="42.36657" lon="-0.5589">
        <ele>810.23</ele>
        <time>2021-08-03T10:13:56Z</time>
      </trkpt>
      <trkpt lat="42.36683" lon="-0.55965">
        <ele>808.07</ele>
        <time>2021-08-03T10:14:01Z</time>
      </trkpt>
      <trkpt lat="42.36673" lon="-0.56088">
        <ele>803.96</ele>
        <time>2021-08-03T10:14:07Z</time>
      </trkpt>
      <trkpt lat="42.3667" lon="-0.56123">
        <ele>802.34</ele>
        <time>2021-08-03T10:14:09Z</time>
      </trkpt>
      <trkpt lat="42.36693" lon="-0.56178">
        <ele>797.86</ele>
        <time>2021-08-03T10:14:14Z</time>
      </trkpt>
      <trkpt lat="42.36716" lon="-0.56175">
        <ele>796.21</ele>
        <time>2021-08-03T10:14:16Z</time>
      </trkpt>
      <trkpt lat="42.36799" lon="-0.56186">
        <ele>791.69</ele>
        <time>2021-08-03T10:14:23Z</time>
      </trkpt>
      <trkpt lat="42.36838" lon="-0.56231">
        <ele>789.55</ele>
        <time>2021-08-03T10:14:27Z</time>
      </trkpt>
      <trkpt lat="42.36869" lon="-0.56288">
        <ele>788.22</ele>
        <time>2021-08-03T10:14:31Z</time>
      </trkpt>
      <trkpt lat="42.36889" lon="-0.56359">
        <ele>787.25</ele>
        <time>2021-08-03T10:14:35Z</time>
      </trkpt>
      <trkpt lat="42.36921" lon="-0.5643">
        <ele>784.88</ele>
        <time>2021-08-03T10:14:40Z</time>
      </trkpt>
      <trkpt lat="42.36961" lon="-0.56484">
        <ele>782.62</ele>
        <time>2021-08-03T10:14:44Z</time>
      </trkpt>
      <trkpt lat="42.36984" lon="-0.56558">
        <ele>779.64</ele>
        <time>2021-08-03T10:14:48Z</time>
      </trkpt>
      <trkpt lat="42.37013" lon="-0.56651">
        <ele>774.92</ele>
        <time>2021-08-03T10:14:53Z</time>
      </trkpt>
      <trkpt lat="42.37042" lon="-0.56679">
        <ele>771.87</ele>
        <time>2021-08-03T10:14:56Z</time>
      </trkpt>
      <trkpt lat="42.3708" lon="-0.56682">
        <ele>768.68</ele>
        <time>2021-08-03T10:14:59Z</time>
      </trkpt>
      <trkpt lat="42.37105" lon="-0.56676">
        <ele>767.04</ele>
        <time>2021-08-03T10:15:01Z</time>
      </trkpt>
      <trkpt lat="42.3715" lon="-0.56698">
        <ele>762.58</ele>
        <time>2021-08-03T10:15:06Z</time>
      </trkpt>
      <trkpt lat="42.37158" lon="-0.56707">
        <ele>761.8</ele>
        <time>2021-08-03T10:15:07Z</time>
      </trkpt>
      <trkpt lat="42.37211" lon="-0.56785">
        <ele>757.58</ele>
        <time>2021-08-03T10:15:13Z</time>
      </trkpt>
      <trkpt lat="42.37251" lon="-0.56843">
        <ele>754.47</ele>
        <time>2021-08-03T10:15:17Z</time>
      </trkpt>
      <trkpt lat="42.37291" lon="-0.56899">
        <ele>751.01</ele>
        <time>2021-08-03T10:15:21Z</time>
      </trkpt>
      <trkpt lat="42.37301" lon="-0.56913">
        <ele>750.25</ele>
        <time>2021-08-03T10:15:22Z</time>
      </trkpt>
      <trkpt lat="42.37312" lon="-0.56993">
        <ele>745.87</ele>
        <time>2021-08-03T10:15:27Z</time>
      </trkpt>
      <trkpt lat="42.37293" lon="-0.57056">
        <ele>742.55</ele>
        <time>2021-08-03T10:15:31Z</time>
      </trkpt>
      <trkpt lat="42.3729" lon="-0.57123">
        <ele>739.51</ele>
        <time>2021-08-03T10:15:36Z</time>
      </trkpt>
      <trkpt lat="42.37281" lon="-0.57134">
        <ele>739.1</ele>
        <time>2021-08-03T10:15:37Z</time>
      </trkpt>
      <trkpt lat="42.37247" lon="-0.57195">
        <ele>738.16</ele>
        <time>2021-08-03T10:15:42Z</time>
      </trkpt>
      <trkpt lat="42.37244" lon="-0.57258">
        <ele>738.92</ele>
        <time>2021-08-03T10:15:46Z</time>
      </trkpt>
      <trkpt lat="42.37264" lon="-0.57506">
        <ele>741.42</ele>
        <time>2021-08-03T10:15:58Z</time>
      </trkpt>
      <trkpt lat="42.3727" lon="-0.57567">
        <ele>740.96</ele>
        <time>2021-08-03T10:16:01Z</time>
      </trkpt>
      <trkpt lat="42.37301" lon="-0.57645">
        <ele>739.29</ele>
        <time>2021-08-03T10:16:06Z</time>
      </trkpt>
      <trkpt lat="42.37376" lon="-0.57733">
        <ele>735.23</ele>
        <time>2021-08-03T10:16:13Z</time>
      </trkpt>
      <trkpt lat="42.37385" lon="-0.57741">
        <ele>734.33</ele>
        <time>2021-08-03T10:16:14Z</time>
      </trkpt>
      <trkpt lat="42.37396" lon="-0.57746">
        <ele>732.4</ele>
        <time>2021-08-03T10:16:15Z</time>
      </trkpt>
      <trkpt lat="42.37407" lon="-0.57748">
        <ele>731.41</ele>
        <time>2021-08-03T10:16:16Z</time>
      </trkpt>
      <trkpt lat="42.3742" lon="-0.57748">
        <ele>730.41</ele>
        <time>2021-08-03T10:16:17Z</time>
      </trkpt>
      <trkpt lat="42.37433" lon="-0.57747">
        <ele>729.47</ele>
        <time>2021-08-03T10:16:18Z</time>
      </trkpt>
      <trkpt lat="42.37483" lon="-0.57753">
        <ele>725.84</ele>
        <time>2021-08-03T10:16:22Z</time>
      </trkpt>
      <trkpt lat="42.37526" lon="-0.57791">
        <ele>722.55</ele>
        <time>2021-08-03T10:16:26Z</time>
      </trkpt>
      <trkpt lat="42.37564" lon="-0.57867">
        <ele>718.02</ele>
        <time>2021-08-03T10:16:31Z</time>
      </trkpt>
      <trkpt lat="42.37575" lon="-0.5792">
        <ele>714.81</ele>
        <time>2021-08-03T10:16:35Z</time>
      </trkpt>
      <trkpt lat="42.3756" lon="-0.58023">
        <ele>711.58</ele>
        <time>2021-08-03T10:16:42Z</time>
      </trkpt>
      <trkpt lat="42.37553" lon="-0.58037">
        <ele>711.29</ele>
        <time>2021-08-03T10:16:43Z</time>
      </trkpt>
      <trkpt lat="42.37502" lon="-0.58133">
        <ele>709.3</ele>
        <time>2021-08-03T10:16:52Z</time>
      </trkpt>
      <trkpt lat="42.37497" lon="-0.58147">
        <ele>709</ele>
        <time>2021-08-03T10:16:54Z</time>
      </trkpt>
      <trkpt lat="42.37483" lon="-0.58197">
        <ele>707.87</ele>
        <time>2021-08-03T10:17:01Z</time>
      </trkpt>
      <trkpt lat="42.3749" lon="-0.5824">
        <ele>707.53</ele>
        <time>2021-08-03T10:17:06Z</time>
      </trkpt>
      <trkpt lat="42.37549" lon="-0.58313">
        <ele>707.27</ele>
        <time>2021-08-03T10:17:18Z</time>
      </trkpt>
      <trkpt lat="42.37572" lon="-0.58332">
        <ele>707.07</ele>
        <time>2021-08-03T10:17:22Z</time>
      </trkpt>
      <trkpt lat="42.37576" lon="-0.58338">
        <ele>706.97</ele>
        <time>2021-08-03T10:17:23Z</time>
      </trkpt>
      <trkpt lat="42.3758" lon="-0.58344">
        <ele>706.88</ele>
        <time>2021-08-03T10:17:24Z</time>
      </trkpt>
      <trkpt lat="42.37585" lon="-0.58376">
        <ele>706.53</ele>
        <time>2021-08-03T10:17:30Z</time>
      </trkpt>
      <trkpt lat="42.37586" lon="-0.58426">
        <ele>706.51</ele>
        <time>2021-08-03T10:17:34Z</time>
      </trkpt>
      <trkpt lat="42.37581" lon="-0.58505">
        <ele>704.21</ele>
        <time>2021-08-03T10:17:41Z</time>
      </trkpt>
      <trkpt lat="42.37611" lon="-0.58591">
        <ele>700.36</ele>
        <time>2021-08-03T10:17:48Z</time>
      </trkpt>
      <trkpt lat="42.37652" lon="-0.58674">
        <ele>698.74</ele>
        <time>2021-08-03T10:17:54Z</time>
      </trkpt>
      <trkpt lat="42.37658" lon="-0.58733">
        <ele>698.3</ele>
        <time>2021-08-03T10:17:58Z</time>
      </trkpt>
      <trkpt lat="42.37641" lon="-0.58828">
        <ele>697.87</ele>
        <time>2021-08-03T10:18:04Z</time>
      </trkpt>
      <trkpt lat="42.37649" lon="-0.58889">
        <ele>697.75</ele>
        <time>2021-08-03T10:18:08Z</time>
      </trkpt>
      <trkpt lat="42.37662" lon="-0.58928">
        <ele>697.64</ele>
        <time>2021-08-03T10:18:11Z</time>
      </trkpt>
      <trkpt lat="42.3771" lon="-0.59008">
        <ele>697.04</ele>
        <time>2021-08-03T10:18:18Z</time>
      </trkpt>
      <trkpt lat="42.37717" lon="-0.59052">
        <ele>694.07</ele>
        <time>2021-08-03T10:18:24Z</time>
      </trkpt>
      <trkpt lat="42.37695" lon="-0.59113">
        <ele>692.74</ele>
        <time>2021-08-03T10:18:32Z</time>
      </trkpt>
      <trkpt lat="42.37671" lon="-0.5918">
        <ele>692.63</ele>
        <time>2021-08-03T10:18:38Z</time>
      </trkpt>
      <trkpt lat="42.37615" lon="-0.59279">
        <ele>691.77</ele>
        <time>2021-08-03T10:18:47Z</time>
      </trkpt>
      <trkpt lat="42.37605" lon="-0.59336">
        <ele>691.2</ele>
        <time>2021-08-03T10:18:51Z</time>
      </trkpt>
      <trkpt lat="42.37601" lon="-0.59393">
        <ele>690.96</ele>
        <time>2021-08-03T10:18:55Z</time>
      </trkpt>
      <trkpt lat="42.37577" lon="-0.59443">
        <ele>690.21</ele>
        <time>2021-08-03T10:18:59Z</time>
      </trkpt>
      <trkpt lat="42.37494" lon="-0.59556">
        <ele>688.19</ele>
        <time>2021-08-03T10:19:09Z</time>
      </trkpt>
      <trkpt lat="42.37473" lon="-0.59615">
        <ele>687.17</ele>
        <time>2021-08-03T10:19:13Z</time>
      </trkpt>
      <trkpt lat="42.37423" lon="-0.59806">
        <ele>684.35</ele>
        <time>2021-08-03T10:19:25Z</time>
      </trkpt>
      <trkpt lat="42.37366" lon="-0.59957">
        <ele>682.14</ele>
        <time>2021-08-03T10:19:34Z</time>
      </trkpt>
      <trkpt lat="42.37356" lon="-0.60025">
        <ele>682.01</ele>
        <time>2021-08-03T10:19:38Z</time>
      </trkpt>
      <trkpt lat="42.37355" lon="-0.60078">
        <ele>681.91</ele>
        <time>2021-08-03T10:19:41Z</time>
      </trkpt>
      <trkpt lat="42.37363" lon="-0.60124">
        <ele>681.29</ele>
        <time>2021-08-03T10:19:44Z</time>
      </trkpt>
      <trkpt lat="42.37367" lon="-0.6025">
        <ele>680.02</ele>
        <time>2021-08-03T10:19:51Z</time>
      </trkpt>
      <trkpt lat="42.37364" lon="-0.60299">
        <ele>679.84</ele>
        <time>2021-08-03T10:19:54Z</time>
      </trkpt>
      <trkpt lat="42.37341" lon="-0.6035">
        <ele>679.41</ele>
        <time>2021-08-03T10:19:58Z</time>
      </trkpt>
      <trkpt lat="42.37317" lon="-0.60428">
        <ele>677.84</ele>
        <time>2021-08-03T10:20:03Z</time>
      </trkpt>
      <trkpt lat="42.37263" lon="-0.60519">
        <ele>675.29</ele>
        <time>2021-08-03T10:20:10Z</time>
      </trkpt>
      <trkpt lat="42.37245" lon="-0.60583">
        <ele>674.53</ele>
        <time>2021-08-03T10:20:14Z</time>
      </trkpt>
      <trkpt lat="42.37241" lon="-0.60619">
        <ele>674.15</ele>
        <time>2021-08-03T10:20:16Z</time>
      </trkpt>
      <trkpt lat="42.37242" lon="-0.60684">
        <ele>673.06</ele>
        <time>2021-08-03T10:20:20Z</time>
      </trkpt>
      <trkpt lat="42.37216" lon="-0.60759">
        <ele>671.68</ele>
        <time>2021-08-03T10:20:25Z</time>
      </trkpt>
      <trkpt lat="42.37142" lon="-0.60878">
        <ele>670.83</ele>
        <time>2021-08-03T10:20:34Z</time>
      </trkpt>
      <trkpt lat="42.37146" lon="-0.60956">
        <ele>670.71</ele>
        <time>2021-08-03T10:20:40Z</time>
      </trkpt>
      <trkpt lat="42.37176" lon="-0.60989">
        <ele>670.48</ele>
        <time>2021-08-03T10:20:43Z</time>
      </trkpt>
      <trkpt lat="42.37225" lon="-0.61039">
        <ele>669.57</ele>
        <time>2021-08-03T10:20:49Z</time>
      </trkpt>
      <trkpt lat="42.37265" lon="-0.61132">
        <ele>668.23</ele>
        <time>2021-08-03T10:20:56Z</time>
      </trkpt>
      <trkpt lat="42.37257" lon="-0.61218">
        <ele>666.43</ele>
        <time>2021-08-03T10:21:02Z</time>
      </trkpt>
      <trkpt lat="42.37206" lon="-0.61379">
        <ele>663.37</ele>
        <time>2021-08-03T10:21:12Z</time>
      </trkpt>
      <trkpt lat="42.3719" lon="-0.61456">
        <ele>662.02</ele>
        <time>2021-08-03T10:21:17Z</time>
      </trkpt>
      <trkpt lat="42.37159" lon="-0.61513">
        <ele>661.74</ele>
        <time>2021-08-03T10:21:22Z</time>
      </trkpt>
      <trkpt lat="42.37139" lon="-0.61528">
        <ele>661.7</ele>
        <time>2021-08-03T10:21:24Z</time>
      </trkpt>
      <trkpt lat="42.37112" lon="-0.61574">
        <ele>661.63</ele>
        <time>2021-08-03T10:21:28Z</time>
      </trkpt>
      <trkpt lat="42.37059" lon="-0.61765">
        <ele>662.06</ele>
        <time>2021-08-03T10:21:39Z</time>
      </trkpt>
      <trkpt lat="42.3705" lon="-0.61852">
        <ele>662.01</ele>
        <time>2021-08-03T10:21:44Z</time>
      </trkpt>
      <trkpt lat="42.37045" lon="-0.61887">
        <ele>661.63</ele>
        <time>2021-08-03T10:21:46Z</time>
      </trkpt>
      <trkpt lat="42.37069" lon="-0.61982">
        <ele>659.21</ele>
        <time>2021-08-03T10:21:52Z</time>
      </trkpt>
      <trkpt lat="42.37146" lon="-0.6209">
        <ele>655.42</ele>
        <time>2021-08-03T10:22:00Z</time>
      </trkpt>
      <trkpt lat="42.37252" lon="-0.62209">
        <ele>653.68</ele>
        <time>2021-08-03T10:22:10Z</time>
      </trkpt>
      <trkpt lat="42.3728" lon="-0.62267">
        <ele>653.51</ele>
        <time>2021-08-03T10:22:14Z</time>
      </trkpt>
      <trkpt lat="42.37294" lon="-0.62293">
        <ele>653.49</ele>
        <time>2021-08-03T10:22:16Z</time>
      </trkpt>
      <trkpt lat="42.37297" lon="-0.62382">
        <ele>653.48</ele>
        <time>2021-08-03T10:22:22Z</time>
      </trkpt>
      <trkpt lat="42.37274" lon="-0.62425">
        <ele>653.4</ele>
        <time>2021-08-03T10:22:25Z</time>
      </trkpt>
      <trkpt lat="42.37175" lon="-0.62547">
        <ele>650.89</ele>
        <time>2021-08-03T10:22:36Z</time>
      </trkpt>
      <trkpt lat="42.37165" lon="-0.62556">
        <ele>650.67</ele>
        <time>2021-08-03T10:22:37Z</time>
      </trkpt>
      <trkpt lat="42.37119" lon="-0.62624">
        <ele>648.91</ele>
        <time>2021-08-03T10:22:43Z</time>
      </trkpt>
      <trkpt lat="42.37108" lon="-0.627">
        <ele>647.81</ele>
        <time>2021-08-03T10:22:48Z</time>
      </trkpt>
      <trkpt lat="42.37112" lon="-0.62754">
        <ele>647.7</ele>
        <time>2021-08-03T10:22:51Z</time>
      </trkpt>
      <trkpt lat="42.3713" lon="-0.62825">
        <ele>647.84</ele>
        <time>2021-08-03T10:22:55Z</time>
      </trkpt>
      <trkpt lat="42.37136" lon="-0.62902">
        <ele>647.99</ele>
        <time>2021-08-03T10:22:59Z</time>
      </trkpt>
      <trkpt lat="42.37143" lon="-0.62975">
        <ele>648.35</ele>
        <time>2021-08-03T10:23:03Z</time>
      </trkpt>
      <trkpt lat="42.3712" lon="-0.63115">
        <ele>648.46</ele>
        <time>2021-08-03T10:23:11Z</time>
      </trkpt>
      <trkpt lat="42.37114" lon="-0.63298">
        <ele>646.59</ele>
        <time>2021-08-03T10:23:21Z</time>
      </trkpt>
      <trkpt lat="42.3712" lon="-0.6341">
        <ele>645.22</ele>
        <time>2021-08-03T10:23:27Z</time>
      </trkpt>
      <trkpt lat="42.37135" lon="-0.63469">
        <ele>643.19</ele>
        <time>2021-08-03T10:23:31Z</time>
      </trkpt>
      <trkpt lat="42.3712" lon="-0.63533">
        <ele>639.84</ele>
        <time>2021-08-03T10:23:36Z</time>
      </trkpt>
      <trkpt lat="42.37129" lon="-0.63621">
        <ele>636.94</ele>
        <time>2021-08-03T10:23:42Z</time>
      </trkpt>
      <trkpt lat="42.3719" lon="-0.63797">
        <ele>633.83</ele>
        <time>2021-08-03T10:23:53Z</time>
      </trkpt>
      <trkpt lat="42.37206" lon="-0.63843">
        <ele>633.47</ele>
        <time>2021-08-03T10:23:56Z</time>
      </trkpt>
      <trkpt lat="42.37213" lon="-0.63935">
        <ele>632.49</ele>
        <time>2021-08-03T10:24:01Z</time>
      </trkpt>
      <trkpt lat="42.37222" lon="-0.64155">
        <ele>631.19</ele>
        <time>2021-08-03T10:24:12Z</time>
      </trkpt>
      <trkpt lat="42.37228" lon="-0.64311">
        <ele>629.51</ele>
        <time>2021-08-03T10:24:20Z</time>
      </trkpt>
      <trkpt lat="42.37246" lon="-0.64376">
        <ele>627.95</ele>
        <time>2021-08-03T10:24:24Z</time>
      </trkpt>
      <trkpt lat="42.37287" lon="-0.6443">
        <ele>625.91</ele>
        <time>2021-08-03T10:24:28Z</time>
      </trkpt>
      <trkpt lat="42.37345" lon="-0.64484">
        <ele>623.1</ele>
        <time>2021-08-03T10:24:33Z</time>
      </trkpt>
      <trkpt lat="42.37367" lon="-0.64544">
        <ele>621.92</ele>
        <time>2021-08-03T10:24:37Z</time>
      </trkpt>
      <trkpt lat="42.37393" lon="-0.64787">
        <ele>620.44</ele>
        <time>2021-08-03T10:24:49Z</time>
      </trkpt>
      <trkpt lat="42.37361" lon="-0.64914">
        <ele>621.05</ele>
        <time>2021-08-03T10:24:57Z</time>
      </trkpt>
      <trkpt lat="42.37385" lon="-0.64991">
        <ele>622.46</ele>
        <time>2021-08-03T10:25:03Z</time>
      </trkpt>
      <trkpt lat="42.37455" lon="-0.65051">
        <ele>623.66</ele>
        <time>2021-08-03T10:25:09Z</time>
      </trkpt>
      <trkpt lat="42.37519" lon="-0.6508">
        <ele>623.11</ele>
        <time>2021-08-03T10:25:14Z</time>
      </trkpt>
      <trkpt lat="42.37598" lon="-0.6514">
        <ele>620.69</ele>
        <time>2021-08-03T10:25:20Z</time>
      </trkpt>
      <trkpt lat="42.37713" lon="-0.65192">
        <ele>617.29</ele>
        <time>2021-08-03T10:25:29Z</time>
      </trkpt>
      <trkpt lat="42.37767" lon="-0.65276">
        <ele>615.61</ele>
        <time>2021-08-03T10:25:36Z</time>
      </trkpt>
      <trkpt lat="42.37766" lon="-0.65293">
        <ele>615.4</ele>
        <time>2021-08-03T10:25:37Z</time>
      </trkpt>
      <trkpt lat="42.37761" lon="-0.65342">
        <ele>614.18</ele>
        <time>2021-08-03T10:25:43Z</time>
      </trkpt>
      <trkpt lat="42.37753" lon="-0.65384">
        <ele>612.69</ele>
        <time>2021-08-03T10:25:55Z</time>
      </trkpt>
      <trkpt lat="42.37723" lon="-0.65491">
        <ele>612.74</ele>
        <time>2021-08-03T10:26:03Z</time>
      </trkpt>
      <trkpt lat="42.37708" lon="-0.65549">
        <ele>612.02</ele>
        <time>2021-08-03T10:26:09Z</time>
      </trkpt>
      <trkpt lat="42.37692" lon="-0.65665">
        <ele>610.79</ele>
        <time>2021-08-03T10:26:17Z</time>
      </trkpt>
      <trkpt lat="42.37691" lon="-0.65681">
        <ele>610.73</ele>
        <time>2021-08-03T10:26:18Z</time>
      </trkpt>
      <trkpt lat="42.37702" lon="-0.65763">
        <ele>610.76</ele>
        <time>2021-08-03T10:26:23Z</time>
      </trkpt>
      <trkpt lat="42.37736" lon="-0.65825">
        <ele>611.17</ele>
        <time>2021-08-03T10:26:28Z</time>
      </trkpt>
      <trkpt lat="42.37833" lon="-0.65892">
        <ele>609.72</ele>
        <time>2021-08-03T10:26:36Z</time>
      </trkpt>
      <trkpt lat="42.37894" lon="-0.65944">
        <ele>608.08</ele>
        <time>2021-08-03T10:26:41Z</time>
      </trkpt>
      <trkpt lat="42.38024" lon="-0.66026">
        <ele>606.78</ele>
        <time>2021-08-03T10:26:52Z</time>
      </trkpt>
      <trkpt lat="42.38087" lon="-0.66061">
        <ele>607.79</ele>
        <time>2021-08-03T10:26:57Z</time>
      </trkpt>
      <trkpt lat="42.38116" lon="-0.6611">
        <ele>608.6</ele>
        <time>2021-08-03T10:27:01Z</time>
      </trkpt>
      <trkpt lat="42.38172" lon="-0.66314">
        <ele>609.47</ele>
        <time>2021-08-03T10:27:12Z</time>
      </trkpt>
      <trkpt lat="42.38237" lon="-0.66484">
        <ele>608.95</ele>
        <time>2021-08-03T10:27:22Z</time>
      </trkpt>
      <trkpt lat="42.38259" lon="-0.66567">
        <ele>606.21</ele>
        <time>2021-08-03T10:27:29Z</time>
      </trkpt>
      <trkpt lat="42.383" lon="-0.667">
        <ele>604.15</ele>
        <time>2021-08-03T10:27:37Z</time>
      </trkpt>
      <trkpt lat="42.38358" lon="-0.66825">
        <ele>602.26</ele>
        <time>2021-08-03T10:27:45Z</time>
      </trkpt>
      <trkpt lat="42.384" lon="-0.66878">
        <ele>599.88</ele>
        <time>2021-08-03T10:27:50Z</time>
      </trkpt>
      <trkpt lat="42.38404" lon="-0.66891">
        <ele>596.01</ele>
        <time>2021-08-03T10:27:57Z</time>
      </trkpt>
      <trkpt lat="42.38404" lon="-0.66893">
        <ele>595.32</ele>
        <time>2021-08-03T10:27:59Z</time>
      </trkpt>
      <trkpt lat="42.38407" lon="-0.66926">
        <ele>594.48</ele>
        <time>2021-08-03T10:28:03Z</time>
      </trkpt>
      <trkpt lat="42.38436" lon="-0.67052">
        <ele>593.59</ele>
        <time>2021-08-03T10:28:12Z</time>
      </trkpt>
      <trkpt lat="42.38456" lon="-0.67278">
        <ele>592.48</ele>
        <time>2021-08-03T10:28:24Z</time>
      </trkpt>
      <trkpt lat="42.38472" lon="-0.67462">
        <ele>589.18</ele>
        <time>2021-08-03T10:28:34Z</time>
      </trkpt>
      <trkpt lat="42.38471" lon="-0.67497">
        <ele>588.24</ele>
        <time>2021-08-03T10:28:36Z</time>
      </trkpt>
      <trkpt lat="42.38492" lon="-0.67576">
        <ele>584.51</ele>
        <time>2021-08-03T10:28:42Z</time>
      </trkpt>
      <trkpt lat="42.38533" lon="-0.67599">
        <ele>581.87</ele>
        <time>2021-08-03T10:28:47Z</time>
      </trkpt>
      <trkpt lat="42.38567" lon="-0.67602">
        <ele>580.21</ele>
        <time>2021-08-03T10:28:51Z</time>
      </trkpt>
      <trkpt lat="42.38573" lon="-0.67606">
        <ele>579.91</ele>
        <time>2021-08-03T10:28:52Z</time>
      </trkpt>
      <trkpt lat="42.38577" lon="-0.67612">
        <ele>579.54</ele>
        <time>2021-08-03T10:28:53Z</time>
      </trkpt>
      <trkpt lat="42.38579" lon="-0.67619">
        <ele>579.16</ele>
        <time>2021-08-03T10:28:54Z</time>
      </trkpt>
      <trkpt lat="42.38581" lon="-0.67627">
        <ele>578.83</ele>
        <time>2021-08-03T10:28:55Z</time>
      </trkpt>
      <trkpt lat="42.38581" lon="-0.67635">
        <ele>578.5</ele>
        <time>2021-08-03T10:28:56Z</time>
      </trkpt>
      <trkpt lat="42.38583" lon="-0.67667">
        <ele>576.09</ele>
        <time>2021-08-03T10:29:03Z</time>
      </trkpt>
      <trkpt lat="42.38582" lon="-0.67682">
        <ele>574.97</ele>
        <time>2021-08-03T10:29:10Z</time>
      </trkpt>
      <trkpt lat="42.38582" lon="-0.67706">
        <ele>574.68</ele>
        <time>2021-08-03T10:29:21Z</time>
      </trkpt>
      <trkpt lat="42.38582" lon="-0.67745">
        <ele>574.74</ele>
        <time>2021-08-03T10:29:29Z</time>
      </trkpt>
      <trkpt lat="42.38568" lon="-0.67751">
        <ele>574.83</ele>
        <time>2021-08-03T10:29:32Z</time>
      </trkpt>
      <trkpt lat="42.38478" lon="-0.67768">
        <ele>576.49</ele>
        <time>2021-08-03T10:29:41Z</time>
      </trkpt>
      <trkpt lat="42.38431" lon="-0.6781">
        <ele>578.87</ele>
        <time>2021-08-03T10:29:46Z</time>
      </trkpt>
      <trkpt lat="42.38396" lon="-0.67906">
        <ele>583.2</ele>
        <time>2021-08-03T10:29:53Z</time>
      </trkpt>
      <trkpt lat="42.38396" lon="-0.67961">
        <ele>584.99</ele>
        <time>2021-08-03T10:29:56Z</time>
      </trkpt>
      <trkpt lat="42.38405" lon="-0.68114">
        <ele>588.87</ele>
        <time>2021-08-03T10:30:04Z</time>
      </trkpt>
      <trkpt lat="42.38389" lon="-0.68283">
        <ele>589.63</ele>
        <time>2021-08-03T10:30:12Z</time>
      </trkpt>
      <trkpt lat="42.38343" lon="-0.68492">
        <ele>588.44</ele>
        <time>2021-08-03T10:30:23Z</time>
      </trkpt>
      <trkpt lat="42.3829" lon="-0.68735">
        <ele>588.5</ele>
        <time>2021-08-03T10:30:37Z</time>
      </trkpt>
      <trkpt lat="42.38262" lon="-0.68869">
        <ele>586.43</ele>
        <time>2021-08-03T10:30:46Z</time>
      </trkpt>
      <trkpt lat="42.38233" lon="-0.69001">
        <ele>583.69</ele>
        <time>2021-08-03T10:30:57Z</time>
      </trkpt>
      <trkpt lat="42.38202" lon="-0.6916">
        <ele>580.57</ele>
        <time>2021-08-03T10:31:12Z</time>
      </trkpt>
      <trkpt lat="42.38193" lon="-0.69266">
        <ele>578.65</ele>
        <time>2021-08-03T10:31:23Z</time>
      </trkpt>
      <trkpt lat="42.38188" lon="-0.69398">
        <ele>578.06</ele>
        <time>2021-08-03T10:31:31Z</time>
      </trkpt>
      <trkpt lat="42.38186" lon="-0.69527">
        <ele>576.98</ele>
        <time>2021-08-03T10:31:39Z</time>
      </trkpt>
      <trkpt lat="42.38185" lon="-0.69579">
        <ele>574.85</ele>
        <time>2021-08-03T10:31:45Z</time>
      </trkpt>
      <trkpt lat="42.38183" lon="-0.69667">
        <ele>572.82</ele>
        <time>2021-08-03T10:31:53Z</time>
      </trkpt>
      <trkpt lat="42.38181" lon="-0.69768">
        <ele>570.48</ele>
        <time>2021-08-03T10:32:03Z</time>
      </trkpt>
      <trkpt lat="42.3818" lon="-0.69844">
        <ele>568.8</ele>
        <time>2021-08-03T10:32:13Z</time>
      </trkpt>
      <trkpt lat="42.38187" lon="-0.69869">
        <ele>567.43</ele>
        <time>2021-08-03T10:32:20Z</time>
      </trkpt>
      <trkpt lat="42.38188" lon="-0.69873">
        <ele>567.11</ele>
        <time>2021-08-03T10:32:22Z</time>
      </trkpt>
      <trkpt lat="42.3818" lon="-0.69859">
        <ele>566.36</ele>
        <time>2021-08-03T10:32:29Z</time>
      </trkpt>
      <trkpt lat="42.38179" lon="-0.69806">
        <ele>566.6</ele>
        <time>2021-08-03T10:32:34Z</time>
      </trkpt>
      <trkpt lat="42.38179" lon="-0.69701">
        <ele>568.64</ele>
        <time>2021-08-03T10:32:44Z</time>
      </trkpt>
      <trkpt lat="42.38183" lon="-0.69606">
        <ele>570.57</ele>
        <time>2021-08-03T10:32:54Z</time>
      </trkpt>
      <trkpt lat="42.38159" lon="-0.69584">
        <ele>571.36</ele>
        <time>2021-08-03T10:33:03Z</time>
      </trkpt>
      <trkpt lat="42.38095" lon="-0.69585">
        <ele>570.58</ele>
        <time>2021-08-03T10:33:15Z</time>
      </trkpt>
      <trkpt lat="42.38087" lon="-0.69584">
        <ele>570.35</ele>
        <time>2021-08-03T10:33:17Z</time>
      </trkpt>
      <trkpt lat="42.38061" lon="-0.69585">
        <ele>569.28</ele>
        <time>2021-08-03T10:33:23Z</time>
      </trkpt>
      <trkpt lat="42.3805" lon="-0.69594">
        <ele>568.78</ele>
        <time>2021-08-03T10:33:26Z</time>
      </trkpt>
      <trkpt lat="42.38048" lon="-0.69598">
        <ele>568.62</ele>
        <time>2021-08-03T10:33:27Z</time>
      </trkpt>
      <trkpt lat="42.38047" lon="-0.69604">
        <ele>568.47</ele>
        <time>2021-08-03T10:33:28Z</time>
      </trkpt>
      <trkpt lat="42.38048" lon="-0.6961">
        <ele>568.27</ele>
        <time>2021-08-03T10:33:29Z</time>
      </trkpt>
      <trkpt lat="42.38049" lon="-0.69616">
        <ele>568.1</ele>
        <time>2021-08-03T10:33:30Z</time>
      </trkpt>
      <trkpt lat="42.38059" lon="-0.69702">
        <ele>566.28</ele>
        <time>2021-08-03T10:33:41Z</time>
      </trkpt>
      <trkpt lat="42.38067" lon="-0.69816">
        <ele>565.16</ele>
        <time>2021-08-03T10:33:51Z</time>
      </trkpt>
      <trkpt lat="42.38066" lon="-0.69892">
        <ele>564.57</ele>
        <time>2021-08-03T10:33:59Z</time>
      </trkpt>
      <trkpt lat="42.38064" lon="-0.70001">
        <ele>564.43</ele>
        <time>2021-08-03T10:34:08Z</time>
      </trkpt>
      <trkpt lat="42.38063" lon="-0.70147">
        <ele>564.18</ele>
        <time>2021-08-03T10:34:20Z</time>
      </trkpt>
      <trkpt lat="42.3806" lon="-0.70236">
        <ele>563.81</ele>
        <time>2021-08-03T10:34:30Z</time>
      </trkpt>
      <trkpt lat="42.38056" lon="-0.704">
        <ele>564.28</ele>
        <time>2021-08-03T10:34:40Z</time>
      </trkpt>
      <trkpt lat="42.3805" lon="-0.70649">
        <ele>565.15</ele>
        <time>2021-08-03T10:34:54Z</time>
      </trkpt>
      <trkpt lat="42.38048" lon="-0.70819">
        <ele>564.96</ele>
        <time>2021-08-03T10:35:05Z</time>
      </trkpt>
      <trkpt lat="42.38046" lon="-0.7094">
        <ele>564.14</ele>
        <time>2021-08-03T10:35:15Z</time>
      </trkpt>
      <trkpt lat="42.38046" lon="-0.70976">
        <ele>563.84</ele>
        <time>2021-08-03T10:35:20Z</time>
      </trkpt>
      <trkpt lat="42.3806" lon="-0.71013">
        <ele>563.62</ele>
        <time>2021-08-03T10:35:26Z</time>
      </trkpt>
      <trkpt lat="42.3807" lon="-0.7106">
        <ele>563.82</ele>
        <time>2021-08-03T10:35:34Z</time>
      </trkpt>
      <trkpt lat="42.3812" lon="-0.71149">
        <ele>563.86</ele>
        <time>2021-08-03T10:35:44Z</time>
      </trkpt>
      <trkpt lat="42.3813" lon="-0.71163">
        <ele>563.76</ele>
        <time>2021-08-03T10:35:46Z</time>
      </trkpt>
      <trkpt lat="42.38125" lon="-0.71195">
        <ele>563.34</ele>
        <time>2021-08-03T10:35:52Z</time>
      </trkpt>
      <trkpt lat="42.3809" lon="-0.71206">
        <ele>563.44</ele>
        <time>2021-08-03T10:35:56Z</time>
      </trkpt>
      <trkpt lat="42.38002" lon="-0.71206">
        <ele>567.13</ele>
        <time>2021-08-03T10:36:05Z</time>
      </trkpt>
      <trkpt lat="42.3787" lon="-0.71205">
        <ele>568.78</ele>
        <time>2021-08-03T10:36:17Z</time>
      </trkpt>
      <trkpt lat="42.37854" lon="-0.71206">
        <ele>567.75</ele>
        <time>2021-08-03T10:36:19Z</time>
      </trkpt>
      <trkpt lat="42.37844" lon="-0.71246">
        <ele>565.57</ele>
        <time>2021-08-03T10:36:25Z</time>
      </trkpt>
      <trkpt lat="42.37849" lon="-0.71268">
        <ele>565.23</ele>
        <time>2021-08-03T10:36:27Z</time>
      </trkpt>
      <trkpt lat="42.37848" lon="-0.71291">
        <ele>564.66</ele>
        <time>2021-08-03T10:36:31Z</time>
      </trkpt>
      <trkpt lat="42.37835" lon="-0.71282">
        <ele>564.57</ele>
        <time>2021-08-03T10:36:37Z</time>
      </trkpt>
      <trkpt lat="42.37813" lon="-0.71246">
        <ele>567.15</ele>
        <time>2021-08-03T10:36:45Z</time>
      </trkpt>
      <trkpt lat="42.37807" lon="-0.71222">
        <ele>568.41</ele>
        <time>2021-08-03T10:36:48Z</time>
      </trkpt>
      <trkpt lat="42.37805" lon="-0.71165">
        <ele>570.14</ele>
        <time>2021-08-03T10:36:56Z</time>
      </trkpt>
      <trkpt lat="42.37793" lon="-0.71108">
        <ele>570.77</ele>
        <time>2021-08-03T10:37:05Z</time>
      </trkpt>
      <trkpt lat="42.37772" lon="-0.71063">
        <ele>571.03</ele>
        <time>2021-08-03T10:37:11Z</time>
      </trkpt>
      <trkpt lat="42.37767" lon="-0.71026">
        <ele>570.73</ele>
        <time>2021-08-03T10:37:16Z</time>
      </trkpt>
      <trkpt lat="42.37751" lon="-0.70945">
        <ele>570.82</ele>
        <time>2021-08-03T10:37:28Z</time>
      </trkpt>
      <trkpt lat="42.37745" lon="-0.70931">
        <ele>570.88</ele>
        <time>2021-08-03T10:37:39Z</time>
      </trkpt>
      <trkpt lat="42.37737" lon="-0.70928">
        <ele>570.88</ele>
        <time>2021-08-03T10:37:41Z</time>
      </trkpt>
      <trkpt lat="42.37713" lon="-0.70899">
        <ele>572.4</ele>
        <time>2021-08-03T10:37:47Z</time>
      </trkpt>
      <trkpt lat="42.37694" lon="-0.70856">
        <ele>576.06</ele>
        <time>2021-08-03T10:37:53Z</time>
      </trkpt>
      <trkpt lat="42.37677" lon="-0.70792">
        <ele>579.23</ele>
        <time>2021-08-03T10:37:59Z</time>
      </trkpt>
      <trkpt lat="42.37665" lon="-0.70746">
        <ele>582.32</ele>
        <time>2021-08-03T10:38:06Z</time>
      </trkpt>
      <trkpt lat="42.37645" lon="-0.70673">
        <ele>585.62</ele>
        <time>2021-08-03T10:38:15Z</time>
      </trkpt>
      <trkpt lat="42.37626" lon="-0.70601">
        <ele>588.8</ele>
        <time>2021-08-03T10:38:23Z</time>
      </trkpt>
      <trkpt lat="42.37606" lon="-0.70536">
        <ele>591.97</ele>
        <time>2021-08-03T10:38:30Z</time>
      </trkpt>
      <trkpt lat="42.37593" lon="-0.70479">
        <ele>595.14</ele>
        <time>2021-08-03T10:38:36Z</time>
      </trkpt>
      <trkpt lat="42.37577" lon="-0.70427">
        <ele>598.61</ele>
        <time>2021-08-03T10:38:42Z</time>
      </trkpt>
      <trkpt lat="42.37561" lon="-0.70374">
        <ele>602.02</ele>
        <time>2021-08-03T10:38:48Z</time>
      </trkpt>
      <trkpt lat="42.37542" lon="-0.70315">
        <ele>605.34</ele>
        <time>2021-08-03T10:38:54Z</time>
      </trkpt>
      <trkpt lat="42.37527" lon="-0.70264">
        <ele>608.86</ele>
        <time>2021-08-03T10:38:59Z</time>
      </trkpt>
      <trkpt lat="42.37518" lon="-0.70229">
        <ele>612.09</ele>
        <time>2021-08-03T10:39:03Z</time>
      </trkpt>
      <trkpt lat="42.37508" lon="-0.70199">
        <ele>615.23</ele>
        <time>2021-08-03T10:39:07Z</time>
      </trkpt>
      <trkpt lat="42.37506" lon="-0.70192">
        <ele>615.98</ele>
        <time>2021-08-03T10:39:08Z</time>
      </trkpt>
      <trkpt lat="42.37494" lon="-0.70157">
        <ele>619.95</ele>
        <time>2021-08-03T10:39:13Z</time>
      </trkpt>
      <trkpt lat="42.37481" lon="-0.70119">
        <ele>623.36</ele>
        <time>2021-08-03T10:39:18Z</time>
      </trkpt>
      <trkpt lat="42.3747" lon="-0.7008">
        <ele>626.77</ele>
        <time>2021-08-03T10:39:23Z</time>
      </trkpt>
      <trkpt lat="42.37457" lon="-0.70047">
        <ele>630.42</ele>
        <time>2021-08-03T10:39:27Z</time>
      </trkpt>
      <trkpt lat="42.37441" lon="-0.70013">
        <ele>634.02</ele>
        <time>2021-08-03T10:39:32Z</time>
      </trkpt>
      <trkpt lat="42.37434" lon="-0.69987">
        <ele>637.48</ele>
        <time>2021-08-03T10:39:38Z</time>
      </trkpt>
      <trkpt lat="42.3743" lon="-0.6998">
        <ele>638.2</ele>
        <time>2021-08-03T10:39:40Z</time>
      </trkpt>
      <trkpt lat="42.37425" lon="-0.69972">
        <ele>639.38</ele>
        <time>2021-08-03T10:39:49Z</time>
      </trkpt>
      <trkpt lat="42.37424" lon="-0.69968">
        <ele>639.58</ele>
        <time>2021-08-03T10:39:51Z</time>
      </trkpt>
      <trkpt lat="42.37405" lon="-0.69924">
        <ele>639.82</ele>
        <time>2021-08-03T10:40:02Z</time>
      </trkpt>
      <trkpt lat="42.37402" lon="-0.6991">
        <ele>638.49</ele>
        <time>2021-08-03T10:40:54Z</time>
      </trkpt>
      <trkpt lat="42.37398" lon="-0.69904">
        <ele>639.62</ele>
        <time>2021-08-03T10:41:11Z</time>
      </trkpt>
      <trkpt lat="42.37399" lon="-0.69905">
        <ele>638.57</ele>
        <time>2021-08-03T10:42:05Z</time>
      </trkpt>
      <trkpt lat="42.37396" lon="-0.69903">
        <ele>637.91</ele>
        <time>2021-08-03T10:42:47Z</time>
      </trkpt>
      <trkpt lat="42.37384" lon="-0.69887">
        <ele>637.66</ele>
        <time>2021-08-03T10:47:55Z</time>
      </trkpt>
      <trkpt lat="42.37372" lon="-0.69891">
        <ele>636.81</ele>
        <time>2021-08-03T10:47:57Z</time>
      </trkpt>
      <trkpt lat="42.3734" lon="-0.69884">
        <ele>633.61</ele>
        <time>2021-08-03T10:48:07Z</time>
      </trkpt>
      <trkpt lat="42.37322" lon="-0.69914">
        <ele>632.67</ele>
        <time>2021-08-03T10:48:18Z</time>
      </trkpt>
      <trkpt lat="42.373" lon="-0.6994">
        <ele>634.06</ele>
        <time>2021-08-03T10:48:30Z</time>
      </trkpt>
      <trkpt lat="42.3727" lon="-0.69943">
        <ele>634.87</ele>
        <time>2021-08-03T10:48:40Z</time>
      </trkpt>
      <trkpt lat="42.37256" lon="-0.69941">
        <ele>634.9</ele>
        <time>2021-08-03T10:48:44Z</time>
      </trkpt>
      <trkpt lat="42.37219" lon="-0.6994">
        <ele>635.78</ele>
        <time>2021-08-03T10:48:55Z</time>
      </trkpt>
      <trkpt lat="42.37203" lon="-0.69965">
        <ele>635.07</ele>
        <time>2021-08-03T10:49:05Z</time>
      </trkpt>
      <trkpt lat="42.37184" lon="-0.69983">
        <ele>634.48</ele>
        <time>2021-08-03T10:49:12Z</time>
      </trkpt>
      <trkpt lat="42.37127" lon="-0.70022">
        <ele>634.32</ele>
        <time>2021-08-03T10:49:27Z</time>
      </trkpt>
      <trkpt lat="42.37065" lon="-0.70059">
        <ele>635.83</ele>
        <time>2021-08-03T10:49:40Z</time>
      </trkpt>
      <trkpt lat="42.37052" lon="-0.7007">
        <ele>637.14</ele>
        <time>2021-08-03T10:49:44Z</time>
      </trkpt>
      <trkpt lat="42.3703" lon="-0.70116">
        <ele>640.93</ele>
        <time>2021-08-03T10:49:53Z</time>
      </trkpt>
      <trkpt lat="42.37021" lon="-0.7014">
        <ele>643.93</ele>
        <time>2021-08-03T10:49:59Z</time>
      </trkpt>
      <trkpt lat="42.37012" lon="-0.70162">
        <ele>647.03</ele>
        <time>2021-08-03T10:50:06Z</time>
      </trkpt>
      <trkpt lat="42.37005" lon="-0.70174">
        <ele>648.13</ele>
        <time>2021-08-03T10:50:09Z</time>
      </trkpt>
      <trkpt lat="42.36982" lon="-0.70192">
        <ele>651.62</ele>
        <time>2021-08-03T10:50:18Z</time>
      </trkpt>
      <trkpt lat="42.36965" lon="-0.70214">
        <ele>652.75</ele>
        <time>2021-08-03T10:50:32Z</time>
      </trkpt>
      <trkpt lat="42.3695" lon="-0.70281">
        <ele>652.94</ele>
        <time>2021-08-03T10:50:42Z</time>
      </trkpt>
      <trkpt lat="42.36928" lon="-0.70328">
        <ele>653.63</ele>
        <time>2021-08-03T10:50:48Z</time>
      </trkpt>
      <trkpt lat="42.36906" lon="-0.70349">
        <ele>655.48</ele>
        <time>2021-08-03T10:50:58Z</time>
      </trkpt>
      <trkpt lat="42.36894" lon="-0.70368">
        <ele>655.6</ele>
        <time>2021-08-03T10:51:11Z</time>
      </trkpt>
      <trkpt lat="42.36892" lon="-0.70366">
        <ele>655.21</ele>
        <time>2021-08-03T10:51:27Z</time>
      </trkpt>
      <trkpt lat="42.36891" lon="-0.7036">
        <ele>655.18</ele>
        <time>2021-08-03T10:51:30Z</time>
      </trkpt>
      <trkpt lat="42.36907" lon="-0.70304">
        <ele>655.81</ele>
        <time>2021-08-03T10:51:40Z</time>
      </trkpt>
      <trkpt lat="42.36909" lon="-0.70262">
        <ele>657.55</ele>
        <time>2021-08-03T10:51:45Z</time>
      </trkpt>
      <trkpt lat="42.36906" lon="-0.70204">
        <ele>661.15</ele>
        <time>2021-08-03T10:51:54Z</time>
      </trkpt>
      <trkpt lat="42.36897" lon="-0.70154">
        <ele>660.82</ele>
        <time>2021-08-03T10:52:04Z</time>
      </trkpt>
      <trkpt lat="42.36891" lon="-0.70128">
        <ele>660.64</ele>
        <time>2021-08-03T10:52:49Z</time>
      </trkpt>
      <trkpt lat="42.36889" lon="-0.70098">
        <ele>658.61</ele>
        <time>2021-08-03T10:53:00Z</time>
      </trkpt>
      <trkpt lat="42.36881" lon="-0.70078">
        <ele>658.53</ele>
        <time>2021-08-03T10:53:17Z</time>
      </trkpt>
      <trkpt lat="42.36841" lon="-0.70038">
        <ele>658.83</ele>
        <time>2021-08-03T10:53:25Z</time>
      </trkpt>
      <trkpt lat="42.36822" lon="-0.70001">
        <ele>656.98</ele>
        <time>2021-08-03T10:53:30Z</time>
      </trkpt>
      <trkpt lat="42.36818" lon="-0.69985">
        <ele>656.02</ele>
        <time>2021-08-03T10:53:32Z</time>
      </trkpt>
      <trkpt lat="42.36784" lon="-0.69993">
        <ele>653.48</ele>
        <time>2021-08-03T10:53:38Z</time>
      </trkpt>
      <trkpt lat="42.36762" lon="-0.69987">
        <ele>651.42</ele>
        <time>2021-08-03T10:53:43Z</time>
      </trkpt>
      <trkpt lat="42.36767" lon="-0.69979">
        <ele>651.09</ele>
        <time>2021-08-03T10:53:44Z</time>
      </trkpt>
      <trkpt lat="42.36738" lon="-0.69921">
        <ele>651.51</ele>
        <time>2021-08-03T10:53:53Z</time>
      </trkpt>
      <trkpt lat="42.36683" lon="-0.69869">
        <ele>655.17</ele>
        <time>2021-08-03T10:54:02Z</time>
      </trkpt>
      <trkpt lat="42.36648" lon="-0.69839">
        <ele>658.51</ele>
        <time>2021-08-03T10:54:07Z</time>
      </trkpt>
      <trkpt lat="42.36634" lon="-0.69828">
        <ele>659.87</ele>
        <time>2021-08-03T10:54:09Z</time>
      </trkpt>
      <trkpt lat="42.36585" lon="-0.69829">
        <ele>664.16</ele>
        <time>2021-08-03T10:54:16Z</time>
      </trkpt>
      <trkpt lat="42.36567" lon="-0.69851">
        <ele>665.96</ele>
        <time>2021-08-03T10:54:19Z</time>
      </trkpt>
      <trkpt lat="42.3656" lon="-0.69864">
        <ele>667.15</ele>
        <time>2021-08-03T10:54:21Z</time>
      </trkpt>
      <trkpt lat="42.36546" lon="-0.69866">
        <ele>670.19</ele>
        <time>2021-08-03T10:54:29Z</time>
      </trkpt>
      <trkpt lat="42.36538" lon="-0.69851">
        <ele>671.02</ele>
        <time>2021-08-03T10:54:32Z</time>
      </trkpt>
      <trkpt lat="42.36511" lon="-0.69795">
        <ele>672.37</ele>
        <time>2021-08-03T10:54:38Z</time>
      </trkpt>
      <trkpt lat="42.36486" lon="-0.69761">
        <ele>673.34</ele>
        <time>2021-08-03T10:54:42Z</time>
      </trkpt>
      <trkpt lat="42.36473" lon="-0.69748">
        <ele>674.02</ele>
        <time>2021-08-03T10:54:44Z</time>
      </trkpt>
      <trkpt lat="42.36393" lon="-0.6971">
        <ele>677.84</ele>
        <time>2021-08-03T10:54:53Z</time>
      </trkpt>
      <trkpt lat="42.36376" lon="-0.69703">
        <ele>678.85</ele>
        <time>2021-08-03T10:54:55Z</time>
      </trkpt>
      <trkpt lat="42.36332" lon="-0.69677">
        <ele>681.99</ele>
        <time>2021-08-03T10:55:01Z</time>
      </trkpt>
      <trkpt lat="42.36307" lon="-0.69646">
        <ele>685.99</ele>
        <time>2021-08-03T10:55:07Z</time>
      </trkpt>
      <trkpt lat="42.36293" lon="-0.69632">
        <ele>688</ele>
        <time>2021-08-03T10:55:10Z</time>
      </trkpt>
      <trkpt lat="42.36283" lon="-0.6962">
        <ele>689.43</ele>
        <time>2021-08-03T10:55:12Z</time>
      </trkpt>
      <trkpt lat="42.36276" lon="-0.69587">
        <ele>693.13</ele>
        <time>2021-08-03T10:55:17Z</time>
      </trkpt>
      <trkpt lat="42.36268" lon="-0.69581">
        <ele>695.7</ele>
        <time>2021-08-03T10:55:20Z</time>
      </trkpt>
      <trkpt lat="42.36251" lon="-0.69587">
        <ele>698.09</ele>
        <time>2021-08-03T10:55:24Z</time>
      </trkpt>
      <trkpt lat="42.36239" lon="-0.69592">
        <ele>699.74</ele>
        <time>2021-08-03T10:55:27Z</time>
      </trkpt>
      <trkpt lat="42.3621" lon="-0.69601">
        <ele>701.97</ele>
        <time>2021-08-03T10:55:33Z</time>
      </trkpt>
      <trkpt lat="42.36187" lon="-0.69624">
        <ele>704.39</ele>
        <time>2021-08-03T10:55:38Z</time>
      </trkpt>
      <trkpt lat="42.36161" lon="-0.69643">
        <ele>706.43</ele>
        <time>2021-08-03T10:55:42Z</time>
      </trkpt>
      <trkpt lat="42.36127" lon="-0.69669">
        <ele>709.88</ele>
        <time>2021-08-03T10:55:50Z</time>
      </trkpt>
      <trkpt lat="42.3612" lon="-0.69652">
        <ele>711.01</ele>
        <time>2021-08-03T10:55:54Z</time>
      </trkpt>
      <trkpt lat="42.3611" lon="-0.69593">
        <ele>713.8</ele>
        <time>2021-08-03T10:56:01Z</time>
      </trkpt>
      <trkpt lat="42.36097" lon="-0.6954">
        <ele>717.96</ele>
        <time>2021-08-03T10:56:08Z</time>
      </trkpt>
      <trkpt lat="42.36112" lon="-0.69509">
        <ele>721.68</ele>
        <time>2021-08-03T10:56:13Z</time>
      </trkpt>
      <trkpt lat="42.36098" lon="-0.69482">
        <ele>725.29</ele>
        <time>2021-08-03T10:56:18Z</time>
      </trkpt>
      <trkpt lat="42.3609" lon="-0.69479">
        <ele>725.9</ele>
        <time>2021-08-03T10:56:19Z</time>
      </trkpt>
      <trkpt lat="42.36072" lon="-0.69472">
        <ele>726.83</ele>
        <time>2021-08-03T10:56:21Z</time>
      </trkpt>
      <trkpt lat="42.36059" lon="-0.69462">
        <ele>727.4</ele>
        <time>2021-08-03T10:56:25Z</time>
      </trkpt>
      <trkpt lat="42.36047" lon="-0.6945">
        <ele>727.4</ele>
        <time>2021-08-03T10:56:28Z</time>
      </trkpt>
      <trkpt lat="42.36039" lon="-0.69438">
        <ele>727.31</ele>
        <time>2021-08-03T10:56:30Z</time>
      </trkpt>
      <trkpt lat="42.36011" lon="-0.69423">
        <ele>727.04</ele>
        <time>2021-08-03T10:56:35Z</time>
      </trkpt>
      <trkpt lat="42.35981" lon="-0.69414">
        <ele>725.17</ele>
        <time>2021-08-03T10:56:44Z</time>
      </trkpt>
      <trkpt lat="42.35978" lon="-0.69398">
        <ele>724.59</ele>
        <time>2021-08-03T10:56:48Z</time>
      </trkpt>
      <trkpt lat="42.35953" lon="-0.69335">
        <ele>726.05</ele>
        <time>2021-08-03T10:56:58Z</time>
      </trkpt>
      <trkpt lat="42.35947" lon="-0.69332">
        <ele>726.41</ele>
        <time>2021-08-03T10:56:59Z</time>
      </trkpt>
      <trkpt lat="42.3592" lon="-0.69294">
        <ele>728.57</ele>
        <time>2021-08-03T10:57:06Z</time>
      </trkpt>
      <trkpt lat="42.35903" lon="-0.69224">
        <ele>730.85</ele>
        <time>2021-08-03T10:57:16Z</time>
      </trkpt>
      <trkpt lat="42.35847" lon="-0.69153">
        <ele>733.75</ele>
        <time>2021-08-03T10:57:27Z</time>
      </trkpt>
      <trkpt lat="42.35816" lon="-0.69127">
        <ele>735.23</ele>
        <time>2021-08-03T10:57:36Z</time>
      </trkpt>
      <trkpt lat="42.35814" lon="-0.69122">
        <ele>735.26</ele>
        <time>2021-08-03T10:57:37Z</time>
      </trkpt>
      <trkpt lat="42.35822" lon="-0.6909">
        <ele>735.81</ele>
        <time>2021-08-03T10:57:44Z</time>
      </trkpt>
      <trkpt lat="42.3581" lon="-0.69057">
        <ele>737.01</ele>
        <time>2021-08-03T10:57:50Z</time>
      </trkpt>
      <trkpt lat="42.35793" lon="-0.69045">
        <ele>739</ele>
        <time>2021-08-03T10:57:56Z</time>
      </trkpt>
      <trkpt lat="42.35787" lon="-0.68993">
        <ele>742.63</ele>
        <time>2021-08-03T10:58:06Z</time>
      </trkpt>
      <trkpt lat="42.3577" lon="-0.68956">
        <ele>744.8</ele>
        <time>2021-08-03T10:58:10Z</time>
      </trkpt>
      <trkpt lat="42.35749" lon="-0.68916">
        <ele>748.22</ele>
        <time>2021-08-03T10:58:16Z</time>
      </trkpt>
      <trkpt lat="42.35698" lon="-0.68893">
        <ele>751.8</ele>
        <time>2021-08-03T10:58:24Z</time>
      </trkpt>
      <trkpt lat="42.35676" lon="-0.68896">
        <ele>753.23</ele>
        <time>2021-08-03T10:58:27Z</time>
      </trkpt>
      <trkpt lat="42.35639" lon="-0.68857">
        <ele>756.68</ele>
        <time>2021-08-03T10:58:34Z</time>
      </trkpt>
      <trkpt lat="42.35618" lon="-0.68853">
        <ele>760.24</ele>
        <time>2021-08-03T10:58:40Z</time>
      </trkpt>
      <trkpt lat="42.35624" lon="-0.68865">
        <ele>761.3</ele>
        <time>2021-08-03T10:58:42Z</time>
      </trkpt>
      <trkpt lat="42.3563" lon="-0.68874">
        <ele>762.38</ele>
        <time>2021-08-03T10:58:44Z</time>
      </trkpt>
      <trkpt lat="42.35636" lon="-0.68884">
        <ele>763.27</ele>
        <time>2021-08-03T10:58:46Z</time>
      </trkpt>
      <trkpt lat="42.35658" lon="-0.68928">
        <ele>764.73</ele>
        <time>2021-08-03T10:58:52Z</time>
      </trkpt>
      <trkpt lat="42.35683" lon="-0.68956">
        <ele>765.76</ele>
        <time>2021-08-03T10:58:56Z</time>
      </trkpt>
      <trkpt lat="42.35673" lon="-0.68975">
        <ele>768.27</ele>
        <time>2021-08-03T10:59:03Z</time>
      </trkpt>
      <trkpt lat="42.35668" lon="-0.6897">
        <ele>768.77</ele>
        <time>2021-08-03T10:59:04Z</time>
      </trkpt>
      <trkpt lat="42.3563" lon="-0.68928">
        <ele>772.72</ele>
        <time>2021-08-03T10:59:11Z</time>
      </trkpt>
      <trkpt lat="42.35581" lon="-0.68893">
        <ele>776.5</ele>
        <time>2021-08-03T10:59:18Z</time>
      </trkpt>
      <trkpt lat="42.35546" lon="-0.68874">
        <ele>779.03</ele>
        <time>2021-08-03T10:59:23Z</time>
      </trkpt>
      <trkpt lat="42.35517" lon="-0.68849">
        <ele>782.07</ele>
        <time>2021-08-03T10:59:28Z</time>
      </trkpt>
      <trkpt lat="42.35493" lon="-0.68839">
        <ele>784.72</ele>
        <time>2021-08-03T10:59:32Z</time>
      </trkpt>
      <trkpt lat="42.35468" lon="-0.68824">
        <ele>788.05</ele>
        <time>2021-08-03T10:59:37Z</time>
      </trkpt>
      <trkpt lat="42.35433" lon="-0.6881">
        <ele>791.61</ele>
        <time>2021-08-03T10:59:43Z</time>
      </trkpt>
      <trkpt lat="42.35426" lon="-0.688">
        <ele>793.15</ele>
        <time>2021-08-03T10:59:45Z</time>
      </trkpt>
      <trkpt lat="42.35415" lon="-0.68779">
        <ele>797.32</ele>
        <time>2021-08-03T10:59:51Z</time>
      </trkpt>
      <trkpt lat="42.35413" lon="-0.68774">
        <ele>798.08</ele>
        <time>2021-08-03T10:59:52Z</time>
      </trkpt>
      <trkpt lat="42.35388" lon="-0.6875">
        <ele>801.21</ele>
        <time>2021-08-03T10:59:58Z</time>
      </trkpt>
      <trkpt lat="42.35365" lon="-0.68741">
        <ele>802.2</ele>
        <time>2021-08-03T11:00:01Z</time>
      </trkpt>
      <trkpt lat="42.35338" lon="-0.68716">
        <ele>802.46</ele>
        <time>2021-08-03T11:00:05Z</time>
      </trkpt>
      <trkpt lat="42.35299" lon="-0.68697">
        <ele>802.1</ele>
        <time>2021-08-03T11:00:12Z</time>
      </trkpt>
      <trkpt lat="42.35272" lon="-0.68693">
        <ele>801.57</ele>
        <time>2021-08-03T11:00:16Z</time>
      </trkpt>
      <trkpt lat="42.35243" lon="-0.68696">
        <ele>800.87</ele>
        <time>2021-08-03T11:00:20Z</time>
      </trkpt>
      <trkpt lat="42.35195" lon="-0.68682">
        <ele>798.29</ele>
        <time>2021-08-03T11:00:28Z</time>
      </trkpt>
      <trkpt lat="42.35162" lon="-0.6866">
        <ele>796.62</ele>
        <time>2021-08-03T11:00:37Z</time>
      </trkpt>
      <trkpt lat="42.35138" lon="-0.68624">
        <ele>796.79</ele>
        <time>2021-08-03T11:00:43Z</time>
      </trkpt>
      <trkpt lat="42.35134" lon="-0.68608">
        <ele>796.94</ele>
        <time>2021-08-03T11:00:46Z</time>
      </trkpt>
      <trkpt lat="42.35122" lon="-0.686">
        <ele>797.2</ele>
        <time>2021-08-03T11:00:49Z</time>
      </trkpt>
      <trkpt lat="42.35116" lon="-0.68567">
        <ele>797.47</ele>
        <time>2021-08-03T11:00:55Z</time>
      </trkpt>
      <trkpt lat="42.35122" lon="-0.68545">
        <ele>797.82</ele>
        <time>2021-08-03T11:00:58Z</time>
      </trkpt>
      <trkpt lat="42.35106" lon="-0.68519">
        <ele>799.02</ele>
        <time>2021-08-03T11:01:06Z</time>
      </trkpt>
      <trkpt lat="42.35044" lon="-0.68508">
        <ele>802.42</ele>
        <time>2021-08-03T11:01:16Z</time>
      </trkpt>
      <trkpt lat="42.35001" lon="-0.68504">
        <ele>805.72</ele>
        <time>2021-08-03T11:01:23Z</time>
      </trkpt>
      <trkpt lat="42.34952" lon="-0.68492">
        <ele>809.15</ele>
        <time>2021-08-03T11:01:30Z</time>
      </trkpt>
      <trkpt lat="42.34925" lon="-0.68479">
        <ele>811.48</ele>
        <time>2021-08-03T11:01:34Z</time>
      </trkpt>
      <trkpt lat="42.34909" lon="-0.68476">
        <ele>813.31</ele>
        <time>2021-08-03T11:01:37Z</time>
      </trkpt>
      <trkpt lat="42.34868" lon="-0.68473">
        <ele>817.5</ele>
        <time>2021-08-03T11:01:45Z</time>
      </trkpt>
      <trkpt lat="42.34819" lon="-0.68488">
        <ele>821.79</ele>
        <time>2021-08-03T11:01:52Z</time>
      </trkpt>
      <trkpt lat="42.34786" lon="-0.68493">
        <ele>825.28</ele>
        <time>2021-08-03T11:01:57Z</time>
      </trkpt>
      <trkpt lat="42.34759" lon="-0.68482">
        <ele>829.32</ele>
        <time>2021-08-03T11:02:02Z</time>
      </trkpt>
      <trkpt lat="42.34728" lon="-0.68472">
        <ele>833.59</ele>
        <time>2021-08-03T11:02:08Z</time>
      </trkpt>
      <trkpt lat="42.34708" lon="-0.68462">
        <ele>836.86</ele>
        <time>2021-08-03T11:02:12Z</time>
      </trkpt>
      <trkpt lat="42.34703" lon="-0.68459">
        <ele>837.7</ele>
        <time>2021-08-03T11:02:13Z</time>
      </trkpt>
      <trkpt lat="42.3468" lon="-0.68438">
        <ele>842.29</ele>
        <time>2021-08-03T11:02:19Z</time>
      </trkpt>
      <trkpt lat="42.34668" lon="-0.68424">
        <ele>844.21</ele>
        <time>2021-08-03T11:02:22Z</time>
      </trkpt>
      <trkpt lat="42.34655" lon="-0.68401">
        <ele>847.31</ele>
        <time>2021-08-03T11:02:26Z</time>
      </trkpt>
      <trkpt lat="42.34644" lon="-0.68377">
        <ele>849.19</ele>
        <time>2021-08-03T11:02:29Z</time>
      </trkpt>
      <trkpt lat="42.34611" lon="-0.68357">
        <ele>851.73</ele>
        <time>2021-08-03T11:02:34Z</time>
      </trkpt>
      <trkpt lat="42.34566" lon="-0.68351">
        <ele>855.68</ele>
        <time>2021-08-03T11:02:41Z</time>
      </trkpt>
      <trkpt lat="42.3456" lon="-0.6835">
        <ele>856.22</ele>
        <time>2021-08-03T11:02:42Z</time>
      </trkpt>
      <trkpt lat="42.34519" lon="-0.68382">
        <ele>860.14</ele>
        <time>2021-08-03T11:02:51Z</time>
      </trkpt>
      <trkpt lat="42.34512" lon="-0.68402">
        <ele>860.7</ele>
        <time>2021-08-03T11:02:53Z</time>
      </trkpt>
      <trkpt lat="42.34493" lon="-0.68443">
        <ele>862.01</ele>
        <time>2021-08-03T11:02:57Z</time>
      </trkpt>
      <trkpt lat="42.34483" lon="-0.68504">
        <ele>864.29</ele>
        <time>2021-08-03T11:03:03Z</time>
      </trkpt>
      <trkpt lat="42.34454" lon="-0.68574">
        <ele>868.62</ele>
        <time>2021-08-03T11:03:11Z</time>
      </trkpt>
      <trkpt lat="42.34442" lon="-0.68592">
        <ele>870.06</ele>
        <time>2021-08-03T11:03:14Z</time>
      </trkpt>
      <trkpt lat="42.34406" lon="-0.68612">
        <ele>872.1</ele>
        <time>2021-08-03T11:03:19Z</time>
      </trkpt>
      <trkpt lat="42.34383" lon="-0.68618">
        <ele>873.86</ele>
        <time>2021-08-03T11:03:27Z</time>
      </trkpt>
      <trkpt lat="42.34382" lon="-0.68618">
        <ele>873.98</ele>
        <time>2021-08-03T11:03:28Z</time>
      </trkpt>
      <trkpt lat="42.3439" lon="-0.68634">
        <ele>874.85</ele>
        <time>2021-08-03T11:03:35Z</time>
      </trkpt>
      <trkpt lat="42.34429" lon="-0.68644">
        <ele>875.06</ele>
        <time>2021-08-03T11:03:40Z</time>
      </trkpt>
      <trkpt lat="42.34471" lon="-0.68647">
        <ele>876.13</ele>
        <time>2021-08-03T11:03:45Z</time>
      </trkpt>
      <trkpt lat="42.345" lon="-0.6864">
        <ele>877.42</ele>
        <time>2021-08-03T11:03:49Z</time>
      </trkpt>
      <trkpt lat="42.34531" lon="-0.68618">
        <ele>879.13</ele>
        <time>2021-08-03T11:03:54Z</time>
      </trkpt>
      <trkpt lat="42.34579" lon="-0.6863">
        <ele>882.45</ele>
        <time>2021-08-03T11:04:01Z</time>
      </trkpt>
      <trkpt lat="42.34623" lon="-0.68648">
        <ele>885.57</ele>
        <time>2021-08-03T11:04:07Z</time>
      </trkpt>
      <trkpt lat="42.34658" lon="-0.68669">
        <ele>888.6</ele>
        <time>2021-08-03T11:04:13Z</time>
      </trkpt>
      <trkpt lat="42.34662" lon="-0.68671">
        <ele>888.92</ele>
        <time>2021-08-03T11:04:14Z</time>
      </trkpt>
      <trkpt lat="42.34696" lon="-0.68697">
        <ele>890.96</ele>
        <time>2021-08-03T11:04:22Z</time>
      </trkpt>
      <trkpt lat="42.3473" lon="-0.68693">
        <ele>891.28</ele>
        <time>2021-08-03T11:04:28Z</time>
      </trkpt>
      <trkpt lat="42.34753" lon="-0.68716">
        <ele>891.37</ele>
        <time>2021-08-03T11:04:33Z</time>
      </trkpt>
      <trkpt lat="42.34769" lon="-0.68751">
        <ele>891.96</ele>
        <time>2021-08-03T11:04:37Z</time>
      </trkpt>
      <trkpt lat="42.34781" lon="-0.68793">
        <ele>893.77</ele>
        <time>2021-08-03T11:04:42Z</time>
      </trkpt>
      <trkpt lat="42.34786" lon="-0.68841">
        <ele>896.52</ele>
        <time>2021-08-03T11:04:48Z</time>
      </trkpt>
      <trkpt lat="42.34783" lon="-0.68861">
        <ele>898.23</ele>
        <time>2021-08-03T11:04:51Z</time>
      </trkpt>
      <trkpt lat="42.34803" lon="-0.68883">
        <ele>900.99</ele>
        <time>2021-08-03T11:04:57Z</time>
      </trkpt>
      <trkpt lat="42.34819" lon="-0.68877">
        <ele>901.69</ele>
        <time>2021-08-03T11:04:59Z</time>
      </trkpt>
      <trkpt lat="42.34864" lon="-0.68867">
        <ele>904.3</ele>
        <time>2021-08-03T11:05:07Z</time>
      </trkpt>
      <trkpt lat="42.34881" lon="-0.68881">
        <ele>905.8</ele>
        <time>2021-08-03T11:05:12Z</time>
      </trkpt>
      <trkpt lat="42.3487" lon="-0.68898">
        <ele>907.14</ele>
        <time>2021-08-03T11:05:16Z</time>
      </trkpt>
      <trkpt lat="42.34845" lon="-0.68931">
        <ele>908.99</ele>
        <time>2021-08-03T11:05:21Z</time>
      </trkpt>
      <trkpt lat="42.34873" lon="-0.68962">
        <ele>910.97</ele>
        <time>2021-08-03T11:05:29Z</time>
      </trkpt>
      <trkpt lat="42.34905" lon="-0.68954">
        <ele>911.9</ele>
        <time>2021-08-03T11:05:33Z</time>
      </trkpt>
      <trkpt lat="42.34922" lon="-0.68982">
        <ele>913.69</ele>
        <time>2021-08-03T11:05:39Z</time>
      </trkpt>
      <trkpt lat="42.34892" lon="-0.69005">
        <ele>916.31</ele>
        <time>2021-08-03T11:05:44Z</time>
      </trkpt>
      <trkpt lat="42.34862" lon="-0.69013">
        <ele>918.24</ele>
        <time>2021-08-03T11:05:48Z</time>
      </trkpt>
      <trkpt lat="42.34831" lon="-0.69007">
        <ele>920.24</ele>
        <time>2021-08-03T11:05:52Z</time>
      </trkpt>
      <trkpt lat="42.34796" lon="-0.68988">
        <ele>923.04</ele>
        <time>2021-08-03T11:05:57Z</time>
      </trkpt>
      <trkpt lat="42.34775" lon="-0.68969">
        <ele>925.53</ele>
        <time>2021-08-03T11:06:01Z</time>
      </trkpt>
      <trkpt lat="42.34766" lon="-0.68957">
        <ele>926.4</ele>
        <time>2021-08-03T11:06:03Z</time>
      </trkpt>
      <trkpt lat="42.34738" lon="-0.68944">
        <ele>928.19</ele>
        <time>2021-08-03T11:06:08Z</time>
      </trkpt>
      <trkpt lat="42.34711" lon="-0.68906">
        <ele>931.16</ele>
        <time>2021-08-03T11:06:17Z</time>
      </trkpt>
      <trkpt lat="42.34678" lon="-0.68862">
        <ele>934.4</ele>
        <time>2021-08-03T11:06:27Z</time>
      </trkpt>
      <trkpt lat="42.34653" lon="-0.6886">
        <ele>935.17</ele>
        <time>2021-08-03T11:06:31Z</time>
      </trkpt>
      <trkpt lat="42.34575" lon="-0.68871">
        <ele>936.86</ele>
        <time>2021-08-03T11:06:43Z</time>
      </trkpt>
      <trkpt lat="42.34562" lon="-0.68868">
        <ele>937.32</ele>
        <time>2021-08-03T11:06:45Z</time>
      </trkpt>
      <trkpt lat="42.34517" lon="-0.68865">
        <ele>941.04</ele>
        <time>2021-08-03T11:06:54Z</time>
      </trkpt>
      <trkpt lat="42.34506" lon="-0.68864">
        <ele>942.06</ele>
        <time>2021-08-03T11:06:56Z</time>
      </trkpt>
      <trkpt lat="42.34487" lon="-0.68857">
        <ele>944.66</ele>
        <time>2021-08-03T11:07:00Z</time>
      </trkpt>
      <trkpt lat="42.34467" lon="-0.68843">
        <ele>948.07</ele>
        <time>2021-08-03T11:07:10Z</time>
      </trkpt>
      <trkpt lat="42.34458" lon="-0.68839">
        <ele>948.94</ele>
        <time>2021-08-03T11:07:13Z</time>
      </trkpt>
      <trkpt lat="42.34415" lon="-0.68851">
        <ele>951.66</ele>
        <time>2021-08-03T11:07:23Z</time>
      </trkpt>
      <trkpt lat="42.34398" lon="-0.68851">
        <ele>952.01</ele>
        <time>2021-08-03T11:07:26Z</time>
      </trkpt>
      <trkpt lat="42.34364" lon="-0.68849">
        <ele>952.98</ele>
        <time>2021-08-03T11:07:32Z</time>
      </trkpt>
      <trkpt lat="42.34329" lon="-0.68865">
        <ele>954.42</ele>
        <time>2021-08-03T11:07:38Z</time>
      </trkpt>
      <trkpt lat="42.34272" lon="-0.68865">
        <ele>956.89</ele>
        <time>2021-08-03T11:07:48Z</time>
      </trkpt>
      <trkpt lat="42.34232" lon="-0.68871">
        <ele>956.46</ele>
        <time>2021-08-03T11:07:57Z</time>
      </trkpt>
      <trkpt lat="42.34186" lon="-0.689">
        <ele>958.47</ele>
        <time>2021-08-03T11:08:07Z</time>
      </trkpt>
      <trkpt lat="42.34172" lon="-0.68922">
        <ele>960.01</ele>
        <time>2021-08-03T11:08:11Z</time>
      </trkpt>
      <trkpt lat="42.34146" lon="-0.68956">
        <ele>963.36</ele>
        <time>2021-08-03T11:08:18Z</time>
      </trkpt>
      <trkpt lat="42.34088" lon="-0.69019">
        <ele>966.11</ele>
        <time>2021-08-03T11:08:30Z</time>
      </trkpt>
      <trkpt lat="42.34073" lon="-0.69041">
        <ele>966.44</ele>
        <time>2021-08-03T11:08:33Z</time>
      </trkpt>
      <trkpt lat="42.34037" lon="-0.69055">
        <ele>968.78</ele>
        <time>2021-08-03T11:08:40Z</time>
      </trkpt>
      <trkpt lat="42.34021" lon="-0.69064">
        <ele>972.27</ele>
        <time>2021-08-03T11:08:48Z</time>
      </trkpt>
      <trkpt lat="42.34012" lon="-0.69073">
        <ele>974.75</ele>
        <time>2021-08-03T11:08:58Z</time>
      </trkpt>
      <trkpt lat="42.3399" lon="-0.69093">
        <ele>975.99</ele>
        <time>2021-08-03T11:09:07Z</time>
      </trkpt>
      <trkpt lat="42.3395" lon="-0.6915">
        <ele>975.89</ele>
        <time>2021-08-03T11:09:17Z</time>
      </trkpt>
      <trkpt lat="42.33915" lon="-0.69196">
        <ele>972.86</ele>
        <time>2021-08-03T11:09:26Z</time>
      </trkpt>
      <trkpt lat="42.33872" lon="-0.6924">
        <ele>970.2</ele>
        <time>2021-08-03T11:09:40Z</time>
      </trkpt>
      <trkpt lat="42.3387" lon="-0.69244">
        <ele>970.1</ele>
        <time>2021-08-03T11:09:41Z</time>
      </trkpt>
      <trkpt lat="42.33859" lon="-0.6927">
        <ele>969.62</ele>
        <time>2021-08-03T11:09:45Z</time>
      </trkpt>
      <trkpt lat="42.33846" lon="-0.69288">
        <ele>969.17</ele>
        <time>2021-08-03T11:09:49Z</time>
      </trkpt>
      <trkpt lat="42.33818" lon="-0.69307">
        <ele>968.71</ele>
        <time>2021-08-03T11:09:58Z</time>
      </trkpt>
      <trkpt lat="42.33805" lon="-0.6931">
        <ele>968.76</ele>
        <time>2021-08-03T11:10:01Z</time>
      </trkpt>
      <trkpt lat="42.33752" lon="-0.69303">
        <ele>969.84</ele>
        <time>2021-08-03T11:10:11Z</time>
      </trkpt>
      <trkpt lat="42.33685" lon="-0.69311">
        <ele>970.14</ele>
        <time>2021-08-03T11:10:22Z</time>
      </trkpt>
      <trkpt lat="42.33678" lon="-0.69316">
        <ele>969.19</ele>
        <time>2021-08-03T11:10:31Z</time>
      </trkpt>
      <trkpt lat="42.33664" lon="-0.69321">
        <ele>968.52</ele>
        <time>2021-08-03T11:12:45Z</time>
      </trkpt>
      <trkpt lat="42.33627" lon="-0.69326">
        <ele>968.28</ele>
        <time>2021-08-03T11:12:55Z</time>
      </trkpt>
      <trkpt lat="42.33602" lon="-0.69337">
        <ele>967.11</ele>
        <time>2021-08-03T11:13:05Z</time>
      </trkpt>
      <trkpt lat="42.33578" lon="-0.69344">
        <ele>964.8</ele>
        <time>2021-08-03T11:13:13Z</time>
      </trkpt>
      <trkpt lat="42.33568" lon="-0.69345">
        <ele>964.28</ele>
        <time>2021-08-03T11:13:15Z</time>
      </trkpt>
      <trkpt lat="42.33518" lon="-0.69328">
        <ele>962.62</ele>
        <time>2021-08-03T11:13:23Z</time>
      </trkpt>
      <trkpt lat="42.33488" lon="-0.69305">
        <ele>962.66</ele>
        <time>2021-08-03T11:13:27Z</time>
      </trkpt>
      <trkpt lat="42.33463" lon="-0.69313">
        <ele>964.16</ele>
        <time>2021-08-03T11:13:33Z</time>
      </trkpt>
      <trkpt lat="42.3346" lon="-0.69329">
        <ele>964.88</ele>
        <time>2021-08-03T11:13:35Z</time>
      </trkpt>
      <trkpt lat="42.33457" lon="-0.69349">
        <ele>965.9</ele>
        <time>2021-08-03T11:13:37Z</time>
      </trkpt>
      <trkpt lat="42.33445" lon="-0.6938">
        <ele>967.63</ele>
        <time>2021-08-03T11:13:41Z</time>
      </trkpt>
      <trkpt lat="42.33437" lon="-0.69395">
        <ele>968.89</ele>
        <time>2021-08-03T11:13:44Z</time>
      </trkpt>
      <trkpt lat="42.33437" lon="-0.69395">
        <ele>970.19</ele>
        <time>2021-08-03T11:13:56Z</time>
      </trkpt>
      <trkpt lat="42.33425" lon="-0.69425">
        <ele>970.51</ele>
        <time>2021-08-03T11:14:48Z</time>
      </trkpt>
      <trkpt lat="42.33422" lon="-0.69435">
        <ele>970.68</ele>
        <time>2021-08-03T11:14:50Z</time>
      </trkpt>
      <trkpt lat="42.33418" lon="-0.69439">
        <ele>971.47</ele>
        <time>2021-08-03T11:15:01Z</time>
      </trkpt>
      <trkpt lat="42.33419" lon="-0.69438">
        <ele>971.51</ele>
        <time>2021-08-03T11:25:04Z</time>
      </trkpt>
      <trkpt lat="42.33419" lon="-0.69438">
        <ele>971.51</ele>
        <time>2021-08-03T11:27:59Z</time>
      </trkpt>
      <trkpt lat="42.33408" lon="-0.69436">
        <ele>971.51</ele>
        <time>2021-08-03T11:29:35Z</time>
      </trkpt>
      <trkpt lat="42.33392" lon="-0.6943">
        <ele>974.08</ele>
        <time>2021-08-03T11:29:40Z</time>
      </trkpt>
      <trkpt lat="42.33351" lon="-0.69424">
        <ele>975.58</ele>
        <time>2021-08-03T11:29:51Z</time>
      </trkpt>
      <trkpt lat="42.33315" lon="-0.6944">
        <ele>977.04</ele>
        <time>2021-08-03T11:30:01Z</time>
      </trkpt>
      <trkpt lat="42.33249" lon="-0.69472">
        <ele>980.13</ele>
        <time>2021-08-03T11:30:12Z</time>
      </trkpt>
      <trkpt lat="42.33193" lon="-0.69464">
        <ele>981.84</ele>
        <time>2021-08-03T11:30:21Z</time>
      </trkpt>
      <trkpt lat="42.33163" lon="-0.69448">
        <ele>982.26</ele>
        <time>2021-08-03T11:30:26Z</time>
      </trkpt>
      <trkpt lat="42.33082" lon="-0.69396">
        <ele>984.42</ele>
        <time>2021-08-03T11:30:38Z</time>
      </trkpt>
      <trkpt lat="42.32991" lon="-0.69302">
        <ele>987.3</ele>
        <time>2021-08-03T11:30:52Z</time>
      </trkpt>
      <trkpt lat="42.32945" lon="-0.69269">
        <ele>990</ele>
        <time>2021-08-03T11:30:59Z</time>
      </trkpt>
      <trkpt lat="42.3291" lon="-0.6926">
        <ele>993.64</ele>
        <time>2021-08-03T11:31:07Z</time>
      </trkpt>
      <trkpt lat="42.32888" lon="-0.69273">
        <ele>996.75</ele>
        <time>2021-08-03T11:31:14Z</time>
      </trkpt>
      <trkpt lat="42.32884" lon="-0.69272">
        <ele>997.11</ele>
        <time>2021-08-03T11:31:15Z</time>
      </trkpt>
      <trkpt lat="42.3288" lon="-0.69269">
        <ele>997.48</ele>
        <time>2021-08-03T11:31:16Z</time>
      </trkpt>
      <trkpt lat="42.32877" lon="-0.69266">
        <ele>997.86</ele>
        <time>2021-08-03T11:31:17Z</time>
      </trkpt>
      <trkpt lat="42.32874" lon="-0.69262">
        <ele>998.18</ele>
        <time>2021-08-03T11:31:18Z</time>
      </trkpt>
      <trkpt lat="42.3286" lon="-0.69254">
        <ele>999.68</ele>
        <time>2021-08-03T11:31:26Z</time>
      </trkpt>
      <trkpt lat="42.3286" lon="-0.69265">
        <ele>1000.1</ele>
        <time>2021-08-03T11:31:34Z</time>
      </trkpt>
    </trkseg>
  </trk>
</gpx>